DLH401 KJFK-EDDF
Flight info
| Callsign | DLH401 |
|---|---|
| Flight time | 6h 39m |
| Altitude | 37000 |
| Route | JFK5 MERIT DCT HFD DCT PUT DCT WITCH DCT ALLEX/N0474F370 N535B UMESI/M083F370 DCT 5130N05000W 5330N04000W 5430N03000W 5430N02000W DCT NEBIN/N0482F370 DCT OLGON DCT MORAG DCT EMJEE DCT KONAN UL607 BUPAL/N0476F350 UL607 SPI T180 NIVNU T847 IMCOM IMCOM1D |
| Aircraft | A346/H-SDE2E3FGHIJ3J4J5M1RWXY/LB1D1 |
Departure
| Time | 2026-05-07 19:55 |
|---|---|
| Airport | John F. Kennedy International Airport (KJFK) |
Arrival
| Time | 2026-05-08 02:35 |
|---|---|
| Airport | Frankfurt Main Airport (EDDF) |
| Time | Latitude | Longitude | Altitude | Speed | Heading |
|---|---|---|---|---|---|
| 2026-05-07 19:39 | 40.64114 | -73.79210 | 33 ft | 0 kts | 327° |
| 2026-05-07 19:42 | 40.64113 | -73.79209 | 33 ft | 1 kts | 327° |
| 2026-05-07 19:43 | 40.64094 | -73.79191 | 31 ft | 4 kts | 316° |
| 2026-05-07 19:43 | 40.64081 | -73.79168 | 32 ft | 4 kts | 287° |
| 2026-05-07 19:43 | 40.64079 | -73.79141 | 30 ft | 4 kts | 265° |
| 2026-05-07 19:43 | 40.64085 | -73.79115 | 30 ft | 4 kts | 233° |
| 2026-05-07 19:44 | 40.64100 | -73.79098 | 30 ft | 4 kts | 213° |
| 2026-05-07 19:44 | 40.64114 | -73.79083 | 31 ft | 0 kts | 224° |
| 2026-05-07 19:45 | 40.64115 | -73.79084 | 31 ft | 0 kts | 224° |
| 2026-05-07 19:47 | 40.64112 | -73.79087 | 30 ft | 2 kts | 224° |
| 2026-05-07 19:47 | 40.64096 | -73.79108 | 30 ft | 5 kts | 225° |
| 2026-05-07 19:47 | 40.64064 | -73.79149 | 32 ft | 8 kts | 225° |
| 2026-05-07 19:48 | 40.64017 | -73.79211 | 32 ft | 11 kts | 225° |
| 2026-05-07 19:48 | 40.63980 | -73.79253 | 29 ft | 6 kts | 196° |
| 2026-05-07 19:48 | 40.63938 | -73.79206 | 28 ft | 10 kts | 123° |
| 2026-05-07 19:48 | 40.63899 | -73.79121 | 30 ft | 11 kts | 121° |
| 2026-05-07 19:49 | 40.63856 | -73.79026 | 32 ft | 13 kts | 121° |
| 2026-05-07 19:49 | 40.63807 | -73.78918 | 33 ft | 14 kts | 121° |
| 2026-05-07 19:49 | 40.63755 | -73.78805 | 36 ft | 14 kts | 121° |
| 2026-05-07 19:49 | 40.63704 | -73.78692 | 37 ft | 15 kts | 121° |
| 2026-05-07 19:50 | 40.63644 | -73.78559 | 37 ft | 18 kts | 121° |
| 2026-05-07 19:50 | 40.63571 | -73.78399 | 36 ft | 21 kts | 121° |
| 2026-05-07 19:50 | 40.63488 | -73.78216 | 33 ft | 24 kts | 121° |
| 2026-05-07 19:50 | 40.63417 | -73.78057 | 32 ft | 18 kts | 121° |
| 2026-05-07 19:51 | 40.63353 | -73.77905 | 33 ft | 20 kts | 119° |
| 2026-05-07 19:51 | 40.63285 | -73.77757 | 36 ft | 18 kts | 121° |
| 2026-05-07 19:51 | 40.63221 | -73.77614 | 37 ft | 15 kts | 120° |
| 2026-05-07 19:51 | 40.63169 | -73.77499 | 38 ft | 15 kts | 121° |
| 2026-05-07 19:52 | 40.63109 | -73.77368 | 36 ft | 18 kts | 121° |
| 2026-05-07 19:52 | 40.63061 | -73.77262 | 36 ft | 12 kts | 121° |
| 2026-05-07 19:52 | 40.63014 | -73.77159 | 34 ft | 11 kts | 121° |
| 2026-05-07 19:52 | 40.62983 | -73.77096 | 32 ft | 7 kts | 136° |
| 2026-05-07 19:53 | 40.62929 | -73.77101 | 32 ft | 9 kts | 208° |
| 2026-05-07 19:53 | 40.62869 | -73.77148 | 32 ft | 10 kts | 211° |
| 2026-05-07 19:53 | 40.62825 | -73.77185 | 30 ft | 5 kts | 224° |
| 2026-05-07 19:53 | 40.62824 | -73.77230 | 32 ft | 4 kts | 299° |
| 2026-05-07 19:54 | 40.62825 | -73.77231 | 32 ft | 0 kts | 299° |
| 2026-05-07 19:54 | 40.62825 | -73.77232 | 32 ft | 0 kts | 299° |
| 2026-05-07 19:54 | 40.62892 | -73.77382 | 36 ft | 49 kts | 301° |
| 2026-05-07 19:54 | 40.63178 | -73.78009 | 36 ft | 109 kts | 300° |
| 2026-05-07 19:55 | 40.63666 | -73.79087 | 32 ft | 161 kts | 301° |
| 2026-05-07 19:55 | 40.64284 | -73.80475 | 285 ft | 183 kts | 304° |
| 2026-05-07 19:55 | 40.64878 | -73.81996 | 934 ft | 190 kts | 287° |
| 2026-05-07 19:55 | 40.64718 | -73.83722 | 1485 ft | 201 kts | 242° |
| 2026-05-07 19:56 | 40.63860 | -73.85188 | 2074 ft | 208 kts | 231° |
| 2026-05-07 19:56 | 40.62889 | -73.86695 | 2451 ft | 223 kts | 233° |
| 2026-05-07 19:56 | 40.61880 | -73.88364 | 2779 ft | 243 kts | 228° |
| 2026-05-07 19:56 | 40.60437 | -73.89599 | 3154 ft | 262 kts | 198° |
| 2026-05-07 19:57 | 40.58609 | -73.89750 | 3710 ft | 271 kts | 168° |
| 2026-05-07 19:57 | 40.56876 | -73.88695 | 4411 ft | 275 kts | 139° |
| 2026-05-07 19:57 | 40.55716 | -73.86741 | 4964 ft | 279 kts | 110° |
| 2026-05-07 19:57 | 40.55346 | -73.84248 | 5769 ft | 276 kts | 89° |
| 2026-05-07 19:58 | 40.55362 | -73.81731 | 6564 ft | 278 kts | 85° |
| 2026-05-07 19:58 | 40.55449 | -73.79145 | 7211 ft | 286 kts | 82° |
| 2026-05-07 19:58 | 40.56045 | -73.76627 | 7712 ft | 292 kts | 50° |
| 2026-05-07 19:58 | 40.57522 | -73.74881 | 8292 ft | 289 kts | 23° |
| 2026-05-07 19:59 | 40.59333 | -73.73688 | 9001 ft | 293 kts | 17° |
| 2026-05-07 19:59 | 40.61206 | -73.72539 | 9697 ft | 302 kts | 17° |
| 2026-05-07 19:59 | 40.63120 | -73.71301 | 10331 ft | 311 kts | 18° |
| 2026-05-07 19:59 | 40.65094 | -73.69951 | 10769 ft | 327 kts | 20° |
| 2026-05-07 20:00 | 40.67137 | -73.68492 | 11121 ft | 346 kts | 21° |
| 2026-05-07 20:00 | 40.69301 | -73.66899 | 11474 ft | 364 kts | 22° |
| 2026-05-07 20:00 | 40.71543 | -73.65216 | 11793 ft | 382 kts | 23° |
| 2026-05-07 20:00 | 40.73924 | -73.63412 | 12111 ft | 401 kts | 24° |
| 2026-05-07 20:01 | 40.76383 | -73.61532 | 12434 ft | 418 kts | 25° |
| 2026-05-07 20:01 | 40.78952 | -73.59560 | 12888 ft | 431 kts | 25° |
| 2026-05-07 20:01 | 40.81543 | -73.57566 | 13572 ft | 437 kts | 25° |
| 2026-05-07 20:01 | 40.84209 | -73.55508 | 14182 ft | 444 kts | 24° |
| 2026-05-07 20:02 | 40.86870 | -73.53462 | 14800 ft | 449 kts | 24° |
| 2026-05-07 20:02 | 40.89593 | -73.51370 | 15457 ft | 453 kts | 24° |
| 2026-05-07 20:02 | 40.92329 | -73.49268 | 16103 ft | 457 kts | 24° |
| 2026-05-07 20:02 | 40.95066 | -73.47166 | 16734 ft | 462 kts | 24° |
| 2026-05-07 20:03 | 40.97874 | -73.45006 | 17379 ft | 466 kts | 24° |
| 2026-05-07 20:03 | 41.00691 | -73.42837 | 18051 ft | 471 kts | 24° |
| 2026-05-07 20:03 | 41.03548 | -73.40635 | 18603 ft | 475 kts | 24° |
| 2026-05-07 20:03 | 41.06401 | -73.38434 | 19106 ft | 481 kts | 24° |
| 2026-05-07 20:04 | 41.09316 | -73.36182 | 19599 ft | 486 kts | 24° |
| 2026-05-07 20:04 | 41.12261 | -73.33906 | 20097 ft | 492 kts | 24° |
| 2026-05-07 20:04 | 41.15214 | -73.31621 | 20566 ft | 497 kts | 24° |
| 2026-05-07 20:04 | 41.18224 | -73.29289 | 21065 ft | 503 kts | 23° |
| 2026-05-07 20:05 | 41.21265 | -73.26932 | 21534 ft | 509 kts | 23° |
| 2026-05-07 20:05 | 41.24334 | -73.24550 | 22043 ft | 513 kts | 23° |
| 2026-05-07 20:05 | 41.27439 | -73.22134 | 22526 ft | 519 kts | 23° |
| 2026-05-07 20:05 | 41.30561 | -73.19703 | 22984 ft | 524 kts | 23° |
| 2026-05-07 20:06 | 41.33714 | -73.17245 | 23447 ft | 530 kts | 23° |
| 2026-05-07 20:06 | 41.36810 | -73.14422 | 23857 ft | 544 kts | 34° |
| 2026-05-07 20:06 | 41.39472 | -73.10843 | 24376 ft | 551 kts | 48° |
| 2026-05-07 20:06 | 41.41643 | -73.06604 | 24907 ft | 555 kts | 57° |
| 2026-05-07 20:07 | 41.43606 | -73.02101 | 25253 ft | 561 kts | 60° |
| 2026-05-07 20:07 | 41.45523 | -72.97522 | 25543 ft | 568 kts | 60° |
| 2026-05-07 20:07 | 41.47469 | -72.92897 | 25835 ft | 574 kts | 60° |
| 2026-05-07 20:07 | 41.49448 | -72.88272 | 26075 ft | 581 kts | 59° |
| 2026-05-07 20:08 | 41.51483 | -72.83583 | 26353 ft | 588 kts | 59° |
| 2026-05-07 20:08 | 41.53561 | -72.78836 | 26714 ft | 592 kts | 59° |
| 2026-05-07 20:08 | 41.55652 | -72.74071 | 27087 ft | 596 kts | 59° |
| 2026-05-07 20:08 | 41.57761 | -72.69265 | 27441 ft | 600 kts | 59° |
| 2026-05-07 20:09 | 41.59868 | -72.64452 | 27798 ft | 604 kts | 59° |
| 2026-05-07 20:09 | 41.61980 | -72.59613 | 28141 ft | 607 kts | 59° |
| 2026-05-07 20:09 | 41.64113 | -72.54719 | 28567 ft | 609 kts | 59° |
| 2026-05-07 20:10 | 41.68492 | -72.44917 | 29528 ft | 613 kts | 58° |
| 2026-05-07 20:10 | 41.70708 | -72.40025 | 30029 ft | 613 kts | 58° |
| 2026-05-07 20:10 | 41.72895 | -72.35191 | 30457 ft | 613 kts | 58° |
| 2026-05-07 20:10 | 41.75104 | -72.30289 | 30897 ft | 614 kts | 58° |
| 2026-05-07 20:11 | 41.77326 | -72.25340 | 31281 ft | 614 kts | 58° |
| 2026-05-07 20:11 | 41.79527 | -72.20424 | 31693 ft | 615 kts | 58° |
| 2026-05-07 20:11 | 41.81729 | -72.15494 | 32081 ft | 615 kts | 58° |
| 2026-05-07 20:11 | 41.83930 | -72.10561 | 32568 ft | 616 kts | 58° |
| 2026-05-07 20:12 | 41.86121 | -72.05643 | 33035 ft | 615 kts | 58° |
| 2026-05-07 20:12 | 41.88315 | -72.00709 | 33479 ft | 614 kts | 58° |
| 2026-05-07 20:12 | 41.90479 | -71.95831 | 33888 ft | 614 kts | 58° |
| 2026-05-07 20:12 | 41.92711 | -71.90893 | 34191 ft | 614 kts | 56° |
| 2026-05-07 20:13 | 41.95105 | -71.86168 | 34507 ft | 612 kts | 51° |
| 2026-05-07 20:13 | 41.97743 | -71.81672 | 34899 ft | 609 kts | 45° |
| 2026-05-07 20:13 | 42.00597 | -71.77487 | 35263 ft | 605 kts | 40° |
| 2026-05-07 20:13 | 42.03602 | -71.73514 | 35645 ft | 602 kts | 38° |
| 2026-05-07 20:14 | 42.06611 | -71.69666 | 35993 ft | 600 kts | 38° |
| 2026-05-07 20:14 | 42.09640 | -71.65805 | 36324 ft | 600 kts | 38° |
| 2026-05-07 20:14 | 42.12665 | -71.61916 | 36600 ft | 600 kts | 38° |
| 2026-05-07 20:14 | 42.15657 | -71.58032 | 36806 ft | 601 kts | 39° |
| 2026-05-07 20:15 | 42.18681 | -71.54070 | 36754 ft | 601 kts | 39° |
| 2026-05-07 20:15 | 42.24679 | -71.46160 | 36796 ft | 602 kts | 39° |
| 2026-05-07 20:16 | 42.30641 | -71.38275 | 36852 ft | 602 kts | 39° |
| 2026-05-07 20:16 | 42.36618 | -71.30351 | 36791 ft | 599 kts | 39° |
| 2026-05-07 20:17 | 42.42579 | -71.22424 | 36790 ft | 599 kts | 39° |
| 2026-05-07 20:17 | 42.48510 | -71.14521 | 36802 ft | 598 kts | 40° |
| 2026-05-07 20:18 | 42.54429 | -71.06609 | 36784 ft | 596 kts | 40° |
| 2026-05-07 20:18 | 42.60295 | -70.98746 | 36777 ft | 596 kts | 40° |
| 2026-05-07 20:19 | 42.66123 | -70.90731 | 36798 ft | 594 kts | 44° |
| 2026-05-07 20:19 | 42.71309 | -70.81866 | 36751 ft | 600 kts | 54° |
| 2026-05-07 20:20 | 42.75872 | -70.72322 | 36767 ft | 603 kts | 56° |
| 2026-05-07 20:20 | 42.80348 | -70.62684 | 36794 ft | 599 kts | 56° |
| 2026-05-07 20:21 | 42.84834 | -70.53099 | 36713 ft | 599 kts | 56° |
| 2026-05-07 20:21 | 42.89337 | -70.43517 | 36756 ft | 603 kts | 56° |
| 2026-05-07 20:22 | 42.93873 | -70.33854 | 36781 ft | 600 kts | 56° |
| 2026-05-07 20:22 | 42.98372 | -70.24237 | 36767 ft | 599 kts | 56° |
| 2026-05-07 20:23 | 43.02849 | -70.14634 | 36740 ft | 602 kts | 56° |
| 2026-05-07 20:23 | 43.07359 | -70.04929 | 36764 ft | 604 kts | 56° |
| 2026-05-07 20:24 | 43.11829 | -69.95276 | 36760 ft | 604 kts | 56° |
| 2026-05-07 20:24 | 43.16315 | -69.85556 | 36707 ft | 604 kts | 56° |
| 2026-05-07 20:25 | 43.20819 | -69.75765 | 36780 ft | 605 kts | 57° |
| 2026-05-07 20:25 | 43.25302 | -69.65989 | 36765 ft | 605 kts | 57° |
| 2026-05-07 20:26 | 43.29778 | -69.56195 | 36754 ft | 605 kts | 57° |
| 2026-05-07 20:26 | 43.34213 | -69.46456 | 36776 ft | 604 kts | 57° |
| 2026-05-07 20:27 | 43.38671 | -69.36636 | 36767 ft | 604 kts | 57° |
| 2026-05-07 20:27 | 43.43113 | -69.26816 | 36733 ft | 606 kts | 57° |
| 2026-05-07 20:28 | 43.47581 | -69.16907 | 36784 ft | 607 kts | 57° |
| 2026-05-07 20:28 | 43.52016 | -69.07039 | 36758 ft | 605 kts | 57° |
| 2026-05-07 20:29 | 43.56444 | -68.97152 | 36752 ft | 605 kts | 57° |
| 2026-05-07 20:29 | 43.60858 | -68.87263 | 36773 ft | 604 kts | 57° |
| 2026-05-07 20:30 | 43.65249 | -68.77392 | 36750 ft | 602 kts | 57° |
| 2026-05-07 20:30 | 43.69619 | -68.67536 | 36725 ft | 605 kts | 57° |
| 2026-05-07 20:31 | 43.74023 | -68.57568 | 36769 ft | 606 kts | 57° |
| 2026-05-07 20:31 | 43.78383 | -68.47664 | 36740 ft | 603 kts | 57° |
| 2026-05-07 20:32 | 43.82746 | -68.37722 | 36744 ft | 603 kts | 57° |
| 2026-05-07 20:32 | 43.87100 | -68.27767 | 36773 ft | 603 kts | 58° |
| 2026-05-07 20:33 | 43.91434 | -68.17822 | 36740 ft | 601 kts | 58° |
| 2026-05-07 20:33 | 43.95752 | -68.07879 | 36719 ft | 603 kts | 58° |
| 2026-05-07 20:34 | 44.00076 | -67.97888 | 36764 ft | 605 kts | 58° |
| 2026-05-07 20:34 | 44.03668 | -67.89562 | 36735 ft | 602 kts | 58° |
| 2026-05-07 20:35 | 44.07966 | -67.79568 | 36730 ft | 602 kts | 58° |
| 2026-05-07 20:35 | 44.12261 | -67.69547 | 36725 ft | 602 kts | 58° |
| 2026-05-07 20:36 | 44.16521 | -67.59569 | 36732 ft | 598 kts | 58° |
| 2026-05-07 20:36 | 44.20775 | -67.49576 | 36655 ft | 597 kts | 58° |
| 2026-05-07 20:37 | 44.25032 | -67.39540 | 36725 ft | 602 kts | 58° |
| 2026-05-07 20:37 | 44.29304 | -67.29433 | 36722 ft | 600 kts | 58° |
| 2026-05-07 20:38 | 44.33507 | -67.19453 | 36708 ft | 599 kts | 58° |
| 2026-05-07 20:38 | 44.37752 | -67.09339 | 36714 ft | 599 kts | 58° |
| 2026-05-07 20:39 | 44.42099 | -66.99429 | 36707 ft | 599 kts | 53° |
| 2026-05-07 20:39 | 44.47133 | -66.90125 | 36707 ft | 597 kts | 48° |
| 2026-05-07 20:40 | 44.52325 | -66.81114 | 36661 ft | 598 kts | 48° |
| 2026-05-07 20:40 | 44.57554 | -66.71990 | 36717 ft | 597 kts | 48° |
| 2026-05-07 20:41 | 44.62721 | -66.62871 | 36703 ft | 596 kts | 49° |
| 2026-05-07 20:41 | 44.67848 | -66.53767 | 36700 ft | 596 kts | 49° |
| 2026-05-07 20:42 | 44.73001 | -66.44586 | 36700 ft | 595 kts | 49° |
| 2026-05-07 20:42 | 44.78126 | -66.35426 | 36699 ft | 595 kts | 49° |
| 2026-05-07 20:43 | 44.83256 | -66.26226 | 36693 ft | 595 kts | 49° |
| 2026-05-07 20:43 | 44.88339 | -66.17089 | 36707 ft | 592 kts | 49° |
| 2026-05-07 20:44 | 44.93422 | -66.07915 | 36694 ft | 591 kts | 49° |
| 2026-05-07 20:44 | 44.98472 | -65.98771 | 36689 ft | 591 kts | 49° |
| 2026-05-07 20:45 | 45.03500 | -65.89643 | 36697 ft | 587 kts | 50° |
| 2026-05-07 20:45 | 45.08508 | -65.80517 | 36685 ft | 586 kts | 50° |
| 2026-05-07 20:46 | 45.13503 | -65.71386 | 36681 ft | 586 kts | 50° |
| 2026-05-07 20:46 | 45.18473 | -65.62277 | 36690 ft | 583 kts | 50° |
| 2026-05-07 20:47 | 45.23451 | -65.53118 | 36687 ft | 583 kts | 50° |
| 2026-05-07 20:47 | 45.28390 | -65.44003 | 36681 ft | 583 kts | 50° |
| 2026-05-07 20:48 | 45.33338 | -65.34844 | 36677 ft | 581 kts | 50° |
| 2026-05-07 20:48 | 45.38271 | -65.25679 | 36678 ft | 581 kts | 51° |
| 2026-05-07 20:49 | 45.43164 | -65.16557 | 36658 ft | 583 kts | 50° |
| 2026-05-07 20:49 | 45.48096 | -65.07343 | 36680 ft | 582 kts | 51° |
| 2026-05-07 20:50 | 45.53004 | -64.98139 | 36676 ft | 582 kts | 51° |
| 2026-05-07 20:50 | 45.57897 | -64.88931 | 36672 ft | 582 kts | 51° |
| 2026-05-07 20:51 | 45.62785 | -64.79710 | 36681 ft | 579 kts | 51° |
| 2026-05-07 20:51 | 45.67611 | -64.70568 | 36674 ft | 579 kts | 51° |
| 2026-05-07 20:52 | 45.72477 | -64.61319 | 36669 ft | 579 kts | 51° |
| 2026-05-07 20:52 | 45.77289 | -64.52150 | 36667 ft | 577 kts | 52° |
| 2026-05-07 20:53 | 45.82100 | -64.42946 | 36649 ft | 576 kts | 52° |
| 2026-05-07 20:53 | 45.86925 | -64.33685 | 36593 ft | 576 kts | 52° |
| 2026-05-07 20:54 | 45.91703 | -64.24487 | 36637 ft | 578 kts | 52° |
| 2026-05-07 20:54 | 45.96519 | -64.15188 | 36638 ft | 579 kts | 52° |
| 2026-05-07 20:55 | 46.01330 | -64.05866 | 36639 ft | 579 kts | 52° |
| 2026-05-07 20:55 | 46.06121 | -63.96556 | 36645 ft | 577 kts | 52° |
| 2026-05-07 20:56 | 46.10865 | -63.87302 | 36643 ft | 576 kts | 52° |
| 2026-05-07 20:56 | 46.15622 | -63.77989 | 36651 ft | 576 kts | 52° |
| 2026-05-07 20:57 | 46.20371 | -63.68664 | 36658 ft | 575 kts | 53° |
| 2026-05-07 20:57 | 46.25077 | -63.59395 | 36652 ft | 573 kts | 53° |
| 2026-05-07 20:58 | 46.29797 | -63.50063 | 36656 ft | 573 kts | 53° |
| 2026-05-07 20:58 | 46.34520 | -63.40692 | 36654 ft | 575 kts | 53° |
| 2026-05-07 20:59 | 46.39200 | -63.31386 | 36659 ft | 573 kts | 53° |
| 2026-05-07 20:59 | 46.43892 | -63.22018 | 36645 ft | 573 kts | 53° |
| 2026-05-07 21:00 | 46.48568 | -63.12647 | 36647 ft | 573 kts | 53° |
| 2026-05-07 21:00 | 46.53213 | -63.03319 | 36651 ft | 571 kts | 53° |
| 2026-05-07 21:01 | 46.57852 | -62.93960 | 36649 ft | 570 kts | 54° |
| 2026-05-07 21:01 | 46.62491 | -62.84570 | 36644 ft | 570 kts | 54° |
| 2026-05-07 21:02 | 46.67116 | -62.75185 | 36648 ft | 568 kts | 54° |
| 2026-05-07 21:02 | 46.71712 | -62.65821 | 36643 ft | 567 kts | 54° |
| 2026-05-07 21:03 | 46.76301 | -62.56436 | 36647 ft | 567 kts | 54° |
| 2026-05-07 21:03 | 46.80855 | -62.47096 | 36641 ft | 567 kts | 54° |
| 2026-05-07 21:04 | 46.85418 | -62.37713 | 36650 ft | 565 kts | 54° |
| 2026-05-07 21:04 | 46.89978 | -62.28292 | 36650 ft | 565 kts | 55° |
| 2026-05-07 21:05 | 46.94492 | -62.18939 | 36644 ft | 565 kts | 55° |
| 2026-05-07 21:05 | 46.99014 | -62.09545 | 36651 ft | 562 kts | 55° |
| 2026-05-07 21:06 | 47.03514 | -62.00154 | 36653 ft | 562 kts | 55° |
| 2026-05-07 21:06 | 47.07978 | -61.90808 | 36645 ft | 562 kts | 55° |
| 2026-05-07 21:07 | 47.12486 | -61.81350 | 36643 ft | 560 kts | 56° |
| 2026-05-07 21:07 | 47.16923 | -61.71995 | 36642 ft | 560 kts | 56° |
| 2026-05-07 21:08 | 47.21373 | -61.62582 | 36637 ft | 560 kts | 56° |
| 2026-05-07 21:08 | 47.25818 | -61.53152 | 36625 ft | 559 kts | 56° |
| 2026-05-07 21:09 | 47.30237 | -61.43746 | 36640 ft | 558 kts | 56° |
| 2026-05-07 21:09 | 47.34646 | -61.34325 | 36645 ft | 558 kts | 56° |
| 2026-05-07 21:10 | 47.39050 | -61.24884 | 36648 ft | 558 kts | 56° |
| 2026-05-07 21:10 | 47.43458 | -61.15403 | 36647 ft | 558 kts | 56° |
| 2026-05-07 21:11 | 47.47825 | -61.05976 | 36643 ft | 558 kts | 57° |
| 2026-05-07 21:11 | 47.54415 | -60.91698 | 36653 ft | 558 kts | 57° |
| 2026-05-07 21:12 | 47.58750 | -60.82265 | 36655 ft | 556 kts | 57° |
| 2026-05-07 21:12 | 47.63106 | -60.72743 | 36660 ft | 556 kts | 57° |
| 2026-05-07 21:13 | 47.67437 | -60.63245 | 36661 ft | 556 kts | 57° |
| 2026-05-07 21:13 | 47.71772 | -60.53722 | 36645 ft | 553 kts | 58° |
| 2026-05-07 21:14 | 47.76063 | -60.44245 | 36659 ft | 552 kts | 58° |
| 2026-05-07 21:14 | 47.80349 | -60.34744 | 36673 ft | 552 kts | 58° |
| 2026-05-07 21:15 | 47.84605 | -60.25288 | 36691 ft | 552 kts | 58° |
| 2026-05-07 21:15 | 47.88884 | -60.15750 | 36682 ft | 552 kts | 59° |
| 2026-05-07 21:16 | 47.93141 | -60.06212 | 36681 ft | 552 kts | 59° |
| 2026-05-07 21:16 | 47.97394 | -59.96656 | 36691 ft | 552 kts | 59° |
| 2026-05-07 21:17 | 48.01627 | -59.87117 | 36688 ft | 552 kts | 59° |
| 2026-05-07 21:17 | 48.05863 | -59.77531 | 36688 ft | 552 kts | 59° |
| 2026-05-07 21:18 | 48.10089 | -59.67935 | 36687 ft | 552 kts | 59° |
| 2026-05-07 21:18 | 48.14293 | -59.58344 | 36660 ft | 552 kts | 58° |
| 2026-05-07 21:19 | 48.18523 | -59.48683 | 36684 ft | 553 kts | 58° |
| 2026-05-07 21:19 | 48.22026 | -59.40669 | 36689 ft | 553 kts | 58° |
| 2026-05-07 21:20 | 48.26235 | -59.30995 | 36691 ft | 552 kts | 58° |
| 2026-05-07 21:20 | 48.30433 | -59.21304 | 36692 ft | 550 kts | 59° |
| 2026-05-07 21:21 | 48.34588 | -59.11673 | 36712 ft | 549 kts | 59° |
| 2026-05-07 21:21 | 48.38720 | -59.02061 | 36713 ft | 549 kts | 59° |
| 2026-05-07 21:22 | 48.42878 | -58.92356 | 36710 ft | 549 kts | 59° |
| 2026-05-07 21:22 | 48.46997 | -58.82711 | 36713 ft | 546 kts | 59° |
| 2026-05-07 21:23 | 48.51108 | -58.73042 | 36738 ft | 546 kts | 59° |
| 2026-05-07 21:23 | 48.55187 | -58.63416 | 36744 ft | 546 kts | 59° |
| 2026-05-07 21:24 | 48.59279 | -58.53719 | 36715 ft | 544 kts | 59° |
| 2026-05-07 21:24 | 48.63315 | -58.44124 | 36748 ft | 542 kts | 59° |
| 2026-05-07 21:25 | 48.67363 | -58.34475 | 36778 ft | 542 kts | 59° |
| 2026-05-07 21:25 | 48.71388 | -58.24840 | 36774 ft | 542 kts | 59° |
| 2026-05-07 21:26 | 48.75383 | -58.15244 | 36780 ft | 539 kts | 59° |
| 2026-05-07 21:26 | 48.79378 | -58.05614 | 36784 ft | 538 kts | 59° |
| 2026-05-07 21:27 | 48.83356 | -57.95988 | 36785 ft | 538 kts | 59° |
| 2026-05-07 21:27 | 48.87329 | -57.86338 | 36797 ft | 538 kts | 60° |
| 2026-05-07 21:28 | 48.91319 | -57.76613 | 36805 ft | 538 kts | 60° |
| 2026-05-07 21:28 | 48.95258 | -57.66978 | 36801 ft | 538 kts | 60° |
| 2026-05-07 21:29 | 48.99221 | -57.57250 | 36804 ft | 538 kts | 60° |
| 2026-05-07 21:29 | 49.03151 | -57.47572 | 36772 ft | 537 kts | 60° |
| 2026-05-07 21:30 | 49.07061 | -57.37890 | 36798 ft | 536 kts | 60° |
| 2026-05-07 21:30 | 49.10964 | -57.28207 | 36803 ft | 536 kts | 60° |
| 2026-05-07 21:31 | 49.14868 | -57.18482 | 36816 ft | 536 kts | 60° |
| 2026-05-07 21:31 | 49.18765 | -57.08753 | 36821 ft | 535 kts | 60° |
| 2026-05-07 21:32 | 49.22624 | -56.99062 | 36821 ft | 535 kts | 60° |
| 2026-05-07 21:32 | 49.26506 | -56.89281 | 36823 ft | 535 kts | 61° |
| 2026-05-07 21:33 | 49.30338 | -56.79594 | 36829 ft | 535 kts | 61° |
| 2026-05-07 21:33 | 49.34191 | -56.69819 | 36825 ft | 534 kts | 61° |
| 2026-05-07 21:34 | 49.38023 | -56.60058 | 36834 ft | 534 kts | 61° |
| 2026-05-07 21:34 | 49.41861 | -56.50246 | 36832 ft | 534 kts | 61° |
| 2026-05-07 21:35 | 49.45692 | -56.40410 | 36829 ft | 533 kts | 61° |
| 2026-05-07 21:35 | 49.49482 | -56.30651 | 36828 ft | 533 kts | 61° |
| 2026-05-07 21:36 | 49.53287 | -56.20818 | 36827 ft | 533 kts | 61° |
| 2026-05-07 21:36 | 49.57055 | -56.11041 | 36836 ft | 533 kts | 62° |
| 2026-05-07 21:37 | 49.60832 | -56.01201 | 36831 ft | 532 kts | 62° |
| 2026-05-07 21:37 | 49.64582 | -55.91401 | 36832 ft | 531 kts | 62° |
| 2026-05-07 21:38 | 49.68341 | -55.81537 | 36835 ft | 531 kts | 62° |
| 2026-05-07 21:38 | 49.72066 | -55.71727 | 36841 ft | 531 kts | 62° |
| 2026-05-07 21:39 | 49.75812 | -55.61827 | 36840 ft | 529 kts | 62° |
| 2026-05-07 21:39 | 49.79539 | -55.51933 | 36838 ft | 529 kts | 62° |
| 2026-05-07 21:40 | 49.83221 | -55.42122 | 36841 ft | 529 kts | 62° |
| 2026-05-07 21:40 | 49.86932 | -55.32199 | 36842 ft | 529 kts | 62° |
| 2026-05-07 21:41 | 49.90600 | -55.22346 | 36821 ft | 528 kts | 62° |
| 2026-05-07 21:41 | 49.94272 | -55.12441 | 36858 ft | 527 kts | 62° |
| 2026-05-07 21:42 | 49.97924 | -55.02573 | 36853 ft | 527 kts | 62° |
| 2026-05-07 21:42 | 50.01565 | -54.92691 | 36858 ft | 527 kts | 62° |
| 2026-05-07 21:43 | 50.05218 | -54.82740 | 36861 ft | 528 kts | 62° |
| 2026-05-07 21:43 | 50.08839 | -54.72828 | 36880 ft | 528 kts | 62° |
| 2026-05-07 21:44 | 50.12472 | -54.62849 | 36871 ft | 528 kts | 63° |
| 2026-05-07 21:44 | 50.16089 | -54.52873 | 36879 ft | 528 kts | 63° |
| 2026-05-07 21:45 | 50.19688 | -54.42912 | 36879 ft | 529 kts | 63° |
| 2026-05-07 21:45 | 50.23304 | -54.32864 | 36887 ft | 529 kts | 63° |
| 2026-05-07 21:46 | 50.26903 | -54.22823 | 36893 ft | 529 kts | 63° |
| 2026-05-07 21:46 | 50.30497 | -54.12757 | 36894 ft | 529 kts | 63° |
| 2026-05-07 21:47 | 50.34077 | -54.02680 | 36894 ft | 528 kts | 63° |
| 2026-05-07 21:47 | 50.37622 | -53.92676 | 36904 ft | 527 kts | 63° |
| 2026-05-07 21:48 | 50.41175 | -53.82614 | 36914 ft | 527 kts | 63° |
| 2026-05-07 21:48 | 50.44721 | -53.72520 | 36914 ft | 525 kts | 63° |
| 2026-05-07 21:49 | 50.48246 | -53.62452 | 36919 ft | 525 kts | 63° |
| 2026-05-07 21:49 | 50.51743 | -53.52429 | 36922 ft | 525 kts | 63° |
| 2026-05-07 21:50 | 50.55251 | -53.42329 | 36932 ft | 525 kts | 63° |
| 2026-05-07 21:50 | 50.58737 | -53.32256 | 36941 ft | 524 kts | 63° |
| 2026-05-07 21:51 | 50.62217 | -53.22157 | 36949 ft | 523 kts | 63° |
| 2026-05-07 21:51 | 50.65680 | -53.12062 | 36955 ft | 523 kts | 63° |
| 2026-05-07 21:52 | 50.69137 | -53.01949 | 36957 ft | 523 kts | 63° |
| 2026-05-07 21:52 | 50.72585 | -52.91821 | 36959 ft | 522 kts | 63° |
| 2026-05-07 21:53 | 50.75994 | -52.81764 | 36957 ft | 521 kts | 63° |
| 2026-05-07 21:53 | 50.79412 | -52.71650 | 36975 ft | 520 kts | 63° |
| 2026-05-07 21:54 | 50.82811 | -52.61488 | 36979 ft | 520 kts | 65° |
| 2026-05-07 21:54 | 50.85789 | -52.51069 | 36984 ft | 519 kts | 69° |
| 2026-05-07 21:55 | 50.88608 | -52.40540 | 36994 ft | 520 kts | 69° |
| 2026-05-07 21:55 | 50.91426 | -52.29979 | 36994 ft | 520 kts | 69° |
| 2026-05-07 21:56 | 50.94247 | -52.19403 | 37002 ft | 520 kts | 69° |
| 2026-05-07 21:56 | 50.97059 | -52.08822 | 37002 ft | 520 kts | 69° |
| 2026-05-07 21:57 | 50.99863 | -51.98224 | 37014 ft | 522 kts | 69° |
| 2026-05-07 21:57 | 51.02664 | -51.87605 | 37021 ft | 522 kts | 69° |
| 2026-05-07 21:58 | 51.05468 | -51.76917 | 36994 ft | 522 kts | 69° |
| 2026-05-07 21:58 | 51.08258 | -51.66215 | 37027 ft | 522 kts | 69° |
| 2026-05-07 21:59 | 51.11047 | -51.55505 | 37051 ft | 525 kts | 69° |
| 2026-05-07 21:59 | 51.13840 | -51.44709 | 37043 ft | 525 kts | 69° |
| 2026-05-07 22:00 | 51.16613 | -51.33933 | 37054 ft | 526 kts | 69° |
| 2026-05-07 22:00 | 51.19378 | -51.23142 | 37056 ft | 526 kts | 69° |
| 2026-05-07 22:01 | 51.22146 | -51.12319 | 37079 ft | 526 kts | 70° |
| 2026-05-07 22:01 | 51.24881 | -51.01527 | 37088 ft | 526 kts | 70° |
| 2026-05-07 22:02 | 51.27625 | -50.90647 | 37079 ft | 526 kts | 70° |
| 2026-05-07 22:02 | 51.30353 | -50.79784 | 37094 ft | 526 kts | 70° |
| 2026-05-07 22:03 | 51.33072 | -50.68923 | 37090 ft | 526 kts | 71° |
| 2026-05-07 22:03 | 51.35777 | -50.58053 | 37110 ft | 525 kts | 71° |
| 2026-05-07 22:04 | 51.38457 | -50.47221 | 37105 ft | 525 kts | 71° |
| 2026-05-07 22:04 | 51.41152 | -50.36283 | 37114 ft | 525 kts | 71° |
| 2026-05-07 22:05 | 51.43377 | -50.27211 | 37128 ft | 525 kts | 71° |
| 2026-05-07 22:05 | 51.46488 | -50.14467 | 37125 ft | 526 kts | 71° |
| 2026-05-07 22:06 | 51.48713 | -50.05304 | 37126 ft | 526 kts | 71° |
| 2026-05-07 22:06 | 51.51385 | -49.94389 | 37127 ft | 526 kts | 70° |
| 2026-05-07 22:07 | 51.54142 | -49.83470 | 37139 ft | 526 kts | 70° |
| 2026-05-07 22:07 | 51.56893 | -49.72541 | 37137 ft | 526 kts | 70° |
| 2026-05-07 22:08 | 51.59612 | -49.61653 | 37125 ft | 525 kts | 71° |
| 2026-05-07 22:08 | 51.62319 | -49.50745 | 37139 ft | 524 kts | 71° |
| 2026-05-07 22:09 | 51.65014 | -49.39827 | 37148 ft | 524 kts | 71° |
| 2026-05-07 22:09 | 51.67701 | -49.28880 | 37153 ft | 524 kts | 71° |
| 2026-05-07 22:10 | 51.70348 | -49.18051 | 37153 ft | 524 kts | 71° |
| 2026-05-07 22:10 | 51.73021 | -49.07057 | 37158 ft | 524 kts | 71° |
| 2026-05-07 22:11 | 51.75664 | -48.96135 | 37162 ft | 524 kts | 71° |
| 2026-05-07 22:11 | 51.78309 | -48.85145 | 37163 ft | 523 kts | 71° |
| 2026-05-07 22:12 | 51.80938 | -48.74170 | 37164 ft | 522 kts | 71° |
| 2026-05-07 22:12 | 51.83553 | -48.63198 | 37163 ft | 522 kts | 71° |
| 2026-05-07 22:13 | 51.86151 | -48.52240 | 37132 ft | 522 kts | 71° |
| 2026-05-07 22:13 | 51.88747 | -48.41242 | 37165 ft | 519 kts | 72° |
| 2026-05-07 22:14 | 51.91310 | -48.30306 | 37170 ft | 520 kts | 71° |
| 2026-05-07 22:14 | 51.93865 | -48.19369 | 37170 ft | 520 kts | 71° |
| 2026-05-07 22:15 | 51.96418 | -48.08383 | 37171 ft | 520 kts | 72° |
| 2026-05-07 22:15 | 51.98968 | -47.97350 | 37173 ft | 520 kts | 72° |
| 2026-05-07 22:16 | 52.01488 | -47.86379 | 37175 ft | 520 kts | 72° |
| 2026-05-07 22:16 | 52.04018 | -47.75323 | 37174 ft | 520 kts | 72° |
| 2026-05-07 22:17 | 52.06537 | -47.64258 | 37176 ft | 520 kts | 72° |
| 2026-05-07 22:17 | 52.09028 | -47.53253 | 37182 ft | 520 kts | 72° |
| 2026-05-07 22:18 | 52.12759 | -47.36644 | 37154 ft | 520 kts | 71° |
| 2026-05-07 22:19 | 52.15228 | -47.25584 | 37180 ft | 519 kts | 71° |
| 2026-05-07 22:19 | 52.17694 | -47.14502 | 37190 ft | 519 kts | 71° |
| 2026-05-07 22:20 | 52.20129 | -47.03494 | 37189 ft | 519 kts | 72° |
| 2026-05-07 22:20 | 52.22563 | -46.92415 | 37191 ft | 519 kts | 71° |
| 2026-05-07 22:21 | 52.25003 | -46.81254 | 37193 ft | 519 kts | 71° |
| 2026-05-07 22:21 | 52.27439 | -46.70061 | 37191 ft | 519 kts | 72° |
| 2026-05-07 22:22 | 52.29834 | -46.58994 | 37198 ft | 519 kts | 72° |
| 2026-05-07 22:22 | 52.32223 | -46.47889 | 37204 ft | 519 kts | 72° |
| 2026-05-07 22:23 | 52.34606 | -46.36735 | 37200 ft | 519 kts | 71° |
| 2026-05-07 22:23 | 52.36986 | -46.25559 | 37198 ft | 519 kts | 72° |
| 2026-05-07 22:24 | 52.39343 | -46.14401 | 37189 ft | 517 kts | 71° |
| 2026-05-07 22:24 | 52.41700 | -46.03212 | 37198 ft | 516 kts | 71° |
| 2026-05-07 22:25 | 52.44013 | -45.92149 | 37201 ft | 516 kts | 71° |
| 2026-05-07 22:25 | 52.46337 | -45.80989 | 37207 ft | 515 kts | 71° |
| 2026-05-07 22:26 | 52.48647 | -45.69844 | 37210 ft | 515 kts | 71° |
| 2026-05-07 22:26 | 52.50940 | -45.58709 | 37212 ft | 515 kts | 71° |
| 2026-05-07 22:27 | 52.53221 | -45.47562 | 37217 ft | 515 kts | 71° |
| 2026-05-07 22:27 | 52.55496 | -45.36360 | 37213 ft | 515 kts | 71° |
| 2026-05-07 22:28 | 52.57768 | -45.25149 | 37216 ft | 515 kts | 71° |
| 2026-05-07 22:28 | 52.60025 | -45.13939 | 37214 ft | 515 kts | 71° |
| 2026-05-07 22:29 | 52.62272 | -45.02711 | 37218 ft | 515 kts | 71° |
| 2026-05-07 22:29 | 52.64507 | -44.91478 | 37217 ft | 516 kts | 71° |
| 2026-05-07 22:30 | 52.66732 | -44.80224 | 37221 ft | 516 kts | 71° |
| 2026-05-07 22:30 | 52.68949 | -44.68953 | 37225 ft | 516 kts | 71° |
| 2026-05-07 22:31 | 52.71140 | -44.57740 | 37223 ft | 516 kts | 72° |
| 2026-05-07 22:31 | 52.73334 | -44.46444 | 37218 ft | 516 kts | 72° |
| 2026-05-07 22:32 | 52.75523 | -44.35124 | 37224 ft | 517 kts | 72° |
| 2026-05-07 22:32 | 52.77696 | -44.23809 | 37226 ft | 517 kts | 72° |
| 2026-05-07 22:33 | 52.79860 | -44.12467 | 37231 ft | 517 kts | 72° |
| 2026-05-07 22:33 | 52.82018 | -44.01098 | 37233 ft | 517 kts | 72° |
| 2026-05-07 22:34 | 52.84143 | -43.89804 | 37235 ft | 517 kts | 72° |
| 2026-05-07 22:34 | 52.86282 | -43.78402 | 37226 ft | 517 kts | 72° |
| 2026-05-07 22:35 | 52.88400 | -43.67026 | 37237 ft | 516 kts | 72° |
| 2026-05-07 22:35 | 52.90514 | -43.55628 | 37242 ft | 516 kts | 72° |
| 2026-05-07 22:36 | 52.92607 | -43.44252 | 37262 ft | 516 kts | 71° |
| 2026-05-07 22:36 | 52.94682 | -43.32901 | 37250 ft | 516 kts | 71° |
| 2026-05-07 22:37 | 52.96761 | -43.21478 | 37253 ft | 516 kts | 72° |
| 2026-05-07 22:37 | 52.98824 | -43.10071 | 37256 ft | 516 kts | 72° |
| 2026-05-07 22:38 | 53.00880 | -42.98618 | 37258 ft | 516 kts | 72° |
| 2026-05-07 22:38 | 53.02924 | -42.87139 | 37266 ft | 517 kts | 71° |
| 2026-05-07 22:39 | 53.04954 | -42.75697 | 37267 ft | 518 kts | 72° |
| 2026-05-07 22:39 | 53.06987 | -42.64169 | 37267 ft | 518 kts | 72° |
| 2026-05-07 22:40 | 53.08999 | -42.52665 | 37261 ft | 517 kts | 72° |
| 2026-05-07 22:40 | 53.10993 | -42.41176 | 37280 ft | 515 kts | 71° |
| 2026-05-07 22:41 | 53.12967 | -42.29746 | 37274 ft | 516 kts | 71° |
| 2026-05-07 22:41 | 53.14948 | -42.18227 | 37273 ft | 516 kts | 71° |
| 2026-05-07 22:42 | 53.16915 | -42.06705 | 37272 ft | 516 kts | 71° |
| 2026-05-07 22:42 | 53.18870 | -41.95168 | 37282 ft | 516 kts | 72° |
| 2026-05-07 22:43 | 53.20799 | -41.83666 | 37288 ft | 517 kts | 71° |
| 2026-05-07 22:43 | 53.22737 | -41.72092 | 37288 ft | 517 kts | 71° |
| 2026-05-07 22:44 | 53.24663 | -41.60506 | 37289 ft | 517 kts | 71° |
| 2026-05-07 22:44 | 53.26569 | -41.48959 | 37290 ft | 517 kts | 71° |
| 2026-05-07 22:45 | 53.28474 | -41.37319 | 37308 ft | 517 kts | 71° |
| 2026-05-07 22:45 | 53.30348 | -41.25765 | 37296 ft | 515 kts | 71° |
| 2026-05-07 22:46 | 53.32227 | -41.14156 | 37300 ft | 514 kts | 71° |
| 2026-05-07 22:46 | 53.34088 | -41.02583 | 37300 ft | 514 kts | 71° |
| 2026-05-07 22:47 | 53.35937 | -40.90988 | 37304 ft | 514 kts | 71° |
| 2026-05-07 22:47 | 53.37760 | -40.79440 | 37315 ft | 515 kts | 71° |
| 2026-05-07 22:48 | 53.39586 | -40.67838 | 37317 ft | 515 kts | 71° |
| 2026-05-07 22:48 | 53.41403 | -40.56210 | 37315 ft | 515 kts | 71° |
| 2026-05-07 22:49 | 53.43207 | -40.44573 | 37317 ft | 515 kts | 71° |
| 2026-05-07 22:49 | 53.45002 | -40.32899 | 37351 ft | 515 kts | 71° |
| 2026-05-07 22:50 | 53.46779 | -40.21246 | 37333 ft | 514 kts | 70° |
| 2026-05-07 22:50 | 53.48553 | -40.09577 | 37328 ft | 514 kts | 71° |
| 2026-05-07 22:51 | 53.50296 | -39.97960 | 37330 ft | 514 kts | 71° |
| 2026-05-07 22:51 | 53.51986 | -39.86256 | 37341 ft | 514 kts | 71° |
| 2026-05-07 22:52 | 53.53661 | -39.74499 | 37345 ft | 514 kts | 71° |
| 2026-05-07 22:52 | 53.55309 | -39.62861 | 37347 ft | 514 kts | 71° |
| 2026-05-07 22:53 | 53.56955 | -39.51158 | 37345 ft | 514 kts | 71° |
| 2026-05-07 22:53 | 53.58331 | -39.41317 | 37346 ft | 514 kts | 71° |
| 2026-05-07 22:54 | 53.59952 | -39.29635 | 37339 ft | 514 kts | 72° |
| 2026-05-07 22:54 | 53.61563 | -39.17897 | 37356 ft | 514 kts | 71° |
| 2026-05-07 22:55 | 53.63174 | -39.06128 | 37353 ft | 514 kts | 71° |
| 2026-05-07 22:55 | 53.64770 | -38.94364 | 37358 ft | 514 kts | 71° |
| 2026-05-07 22:56 | 53.66357 | -38.82564 | 37366 ft | 514 kts | 71° |
| 2026-05-07 22:56 | 53.67918 | -38.70837 | 37389 ft | 514 kts | 71° |
| 2026-05-07 22:57 | 53.69471 | -38.59071 | 37372 ft | 512 kts | 71° |
| 2026-05-07 22:57 | 53.71020 | -38.47295 | 37369 ft | 512 kts | 71° |
| 2026-05-07 22:58 | 53.72554 | -38.35522 | 37371 ft | 512 kts | 71° |
| 2026-05-07 22:58 | 53.74075 | -38.23745 | 37371 ft | 512 kts | 71° |
| 2026-05-07 22:59 | 53.75569 | -38.12035 | 37395 ft | 511 kts | 71° |
| 2026-05-07 22:59 | 53.77063 | -38.00262 | 37380 ft | 510 kts | 71° |
| 2026-05-07 23:00 | 53.78551 | -37.88467 | 37382 ft | 510 kts | 71° |
| 2026-05-07 23:00 | 53.80015 | -37.76745 | 37384 ft | 511 kts | 71° |
| 2026-05-07 23:01 | 53.81476 | -37.64945 | 37388 ft | 511 kts | 71° |
| 2026-05-07 23:01 | 53.82918 | -37.53158 | 37394 ft | 511 kts | 71° |
| 2026-05-07 23:02 | 53.84353 | -37.41347 | 37382 ft | 510 kts | 71° |
| 2026-05-07 23:02 | 53.85771 | -37.29600 | 37388 ft | 510 kts | 71° |
| 2026-05-07 23:03 | 53.87183 | -37.17796 | 37393 ft | 510 kts | 71° |
| 2026-05-07 23:03 | 53.88581 | -37.05990 | 37421 ft | 511 kts | 71° |
| 2026-05-07 23:04 | 53.89965 | -36.94192 | 37395 ft | 511 kts | 71° |
| 2026-05-07 23:04 | 53.91343 | -36.82351 | 37391 ft | 511 kts | 71° |
| 2026-05-07 23:05 | 53.92709 | -36.70498 | 37390 ft | 511 kts | 71° |
| 2026-05-07 23:05 | 53.94065 | -36.58629 | 37390 ft | 511 kts | 72° |
| 2026-05-07 23:06 | 53.95407 | -36.46747 | 37407 ft | 512 kts | 72° |
| 2026-05-07 23:06 | 53.96743 | -36.34832 | 37398 ft | 512 kts | 72° |
| 2026-05-07 23:07 | 53.98063 | -36.22945 | 37394 ft | 512 kts | 72° |
| 2026-05-07 23:07 | 53.99367 | -36.11053 | 37397 ft | 511 kts | 72° |
| 2026-05-07 23:08 | 54.00668 | -35.99117 | 37396 ft | 511 kts | 72° |
| 2026-05-07 23:08 | 54.01941 | -35.87287 | 37407 ft | 509 kts | 71° |
| 2026-05-07 23:09 | 54.03209 | -35.75427 | 37402 ft | 509 kts | 72° |
| 2026-05-07 23:09 | 54.04469 | -35.63529 | 37399 ft | 509 kts | 72° |
| 2026-05-07 23:10 | 54.05711 | -35.51668 | 37402 ft | 509 kts | 72° |
| 2026-05-07 23:10 | 54.06943 | -35.39778 | 37437 ft | 509 kts | 72° |
| 2026-05-07 23:11 | 54.08150 | -35.27985 | 37399 ft | 506 kts | 72° |
| 2026-05-07 23:11 | 54.09353 | -35.16153 | 37403 ft | 506 kts | 72° |
| 2026-05-07 23:12 | 54.10545 | -35.04308 | 37406 ft | 506 kts | 72° |
| 2026-05-07 23:12 | 54.11725 | -34.92453 | 37405 ft | 506 kts | 72° |
| 2026-05-07 23:13 | 54.12879 | -34.80684 | 37437 ft | 504 kts | 72° |
| 2026-05-07 23:13 | 54.14025 | -34.68912 | 37410 ft | 502 kts | 72° |
| 2026-05-07 23:14 | 54.15160 | -34.57163 | 37406 ft | 502 kts | 72° |
| 2026-05-07 23:14 | 54.16289 | -34.45344 | 37404 ft | 502 kts | 72° |
| 2026-05-07 23:15 | 54.17395 | -34.33624 | 37403 ft | 502 kts | 72° |
| 2026-05-07 23:15 | 54.18494 | -34.21842 | 37402 ft | 502 kts | 72° |
| 2026-05-07 23:16 | 54.19586 | -34.10013 | 37398 ft | 502 kts | 72° |
| 2026-05-07 23:16 | 54.20664 | -33.98196 | 37406 ft | 502 kts | 72° |
| 2026-05-07 23:17 | 54.21729 | -33.86395 | 37398 ft | 502 kts | 73° |
| 2026-05-07 23:17 | 54.22787 | -33.74542 | 37413 ft | 502 kts | 73° |
| 2026-05-07 23:18 | 54.23821 | -33.62792 | 37407 ft | 501 kts | 73° |
| 2026-05-07 23:18 | 54.24850 | -33.50985 | 37410 ft | 500 kts | 73° |
| 2026-05-07 23:19 | 54.25857 | -33.39271 | 37405 ft | 499 kts | 73° |
| 2026-05-07 23:19 | 54.26863 | -33.27481 | 37404 ft | 499 kts | 73° |
| 2026-05-07 23:20 | 54.27858 | -33.15667 | 37453 ft | 500 kts | 73° |
| 2026-05-07 23:20 | 54.28835 | -33.03909 | 37410 ft | 497 kts | 73° |
| 2026-05-07 23:21 | 54.29792 | -32.92248 | 37400 ft | 497 kts | 73° |
| 2026-05-07 23:21 | 54.30746 | -32.80484 | 37398 ft | 497 kts | 73° |
| 2026-05-07 23:22 | 54.31687 | -32.68738 | 37398 ft | 497 kts | 73° |
| 2026-05-07 23:22 | 54.32618 | -32.56962 | 37448 ft | 497 kts | 74° |
| 2026-05-07 23:23 | 54.33537 | -32.45205 | 37407 ft | 496 kts | 74° |
| 2026-05-07 23:23 | 54.34435 | -32.33541 | 37395 ft | 496 kts | 74° |
| 2026-05-07 23:24 | 54.35329 | -32.21774 | 37393 ft | 496 kts | 74° |
| 2026-05-07 23:24 | 54.36210 | -32.10032 | 37397 ft | 496 kts | 74° |
| 2026-05-07 23:25 | 54.37085 | -31.98233 | 37432 ft | 496 kts | 74° |
| 2026-05-07 23:25 | 54.37942 | -31.86489 | 37394 ft | 495 kts | 75° |
| 2026-05-07 23:26 | 54.38787 | -31.74745 | 37392 ft | 495 kts | 75° |
| 2026-05-07 23:26 | 54.39619 | -31.63032 | 37387 ft | 496 kts | 75° |
| 2026-05-07 23:27 | 54.40856 | -31.45313 | 37388 ft | 496 kts | 75° |
| 2026-05-07 23:27 | 54.41659 | -31.33625 | 37399 ft | 494 kts | 75° |
| 2026-05-07 23:28 | 54.42451 | -31.21880 | 37386 ft | 494 kts | 75° |
| 2026-05-07 23:28 | 54.43236 | -31.10068 | 37386 ft | 494 kts | 75° |
| 2026-05-07 23:29 | 54.44007 | -30.98318 | 37384 ft | 494 kts | 75° |
| 2026-05-07 23:29 | 54.44762 | -30.86615 | 37445 ft | 495 kts | 75° |
| 2026-05-07 23:30 | 54.45513 | -30.74811 | 37387 ft | 494 kts | 76° |
| 2026-05-07 23:30 | 54.46249 | -30.63045 | 37381 ft | 494 kts | 76° |
| 2026-05-07 23:31 | 54.46975 | -30.51255 | 37378 ft | 495 kts | 76° |
| 2026-05-07 23:31 | 54.47686 | -30.39511 | 37377 ft | 495 kts | 76° |
| 2026-05-07 23:32 | 54.48390 | -30.27716 | 37425 ft | 495 kts | 76° |
| 2026-05-07 23:32 | 54.49081 | -30.15949 | 37379 ft | 494 kts | 76° |
| 2026-05-07 23:33 | 54.49755 | -30.04206 | 37373 ft | 494 kts | 76° |
| 2026-05-07 23:33 | 54.50350 | -29.92364 | 37371 ft | 496 kts | 78° |
| 2026-05-07 23:34 | 54.50811 | -29.80471 | 37360 ft | 496 kts | 78° |
| 2026-05-07 23:34 | 54.51258 | -29.68668 | 37397 ft | 496 kts | 79° |
| 2026-05-07 23:35 | 54.51706 | -29.56815 | 37391 ft | 495 kts | 79° |
| 2026-05-07 23:35 | 54.52146 | -29.44969 | 37366 ft | 495 kts | 79° |
| 2026-05-07 23:36 | 54.52575 | -29.33086 | 37358 ft | 495 kts | 79° |
| 2026-05-07 23:36 | 54.52995 | -29.21177 | 37355 ft | 496 kts | 79° |
| 2026-05-07 23:37 | 54.53401 | -29.09351 | 37390 ft | 496 kts | 79° |
| 2026-05-07 23:37 | 54.53797 | -28.97526 | 37361 ft | 494 kts | 80° |
| 2026-05-07 23:38 | 54.54179 | -28.85673 | 37355 ft | 494 kts | 80° |
| 2026-05-07 23:38 | 54.54549 | -28.73824 | 37339 ft | 494 kts | 80° |
| 2026-05-07 23:39 | 54.54849 | -28.63999 | 37347 ft | 494 kts | 80° |
| 2026-05-07 23:39 | 54.55256 | -28.50193 | 37336 ft | 494 kts | 80° |
| 2026-05-07 23:40 | 54.55592 | -28.38346 | 37335 ft | 494 kts | 80° |
| 2026-05-07 23:40 | 54.55864 | -28.28486 | 37348 ft | 494 kts | 81° |
| 2026-05-07 23:41 | 54.56183 | -28.16580 | 37333 ft | 495 kts | 81° |
| 2026-05-07 23:41 | 54.56485 | -28.04764 | 37339 ft | 495 kts | 81° |
| 2026-05-07 23:42 | 54.56779 | -27.92858 | 37372 ft | 495 kts | 81° |
| 2026-05-07 23:42 | 54.57062 | -27.80975 | 37338 ft | 495 kts | 81° |
| 2026-05-07 23:43 | 54.57331 | -27.69081 | 37419 ft | 498 kts | 82° |
| 2026-05-07 23:43 | 54.57462 | -27.63156 | 37827 ft | 497 kts | 82° |
| 2026-05-07 23:43 | 54.57590 | -27.57176 | 38307 ft | 494 kts | 82° |
| 2026-05-07 23:44 | 54.57714 | -27.51290 | 38726 ft | 492 kts | 82° |
| 2026-05-07 23:44 | 54.57835 | -27.45406 | 39040 ft | 492 kts | 82° |
| 2026-05-07 23:44 | 54.57954 | -27.39444 | 39259 ft | 492 kts | 82° |
| 2026-05-07 23:44 | 54.58068 | -27.33579 | 39336 ft | 493 kts | 83° |
| 2026-05-07 23:45 | 54.58290 | -27.21770 | 39315 ft | 493 kts | 83° |
| 2026-05-07 23:45 | 54.58499 | -27.09879 | 39302 ft | 494 kts | 83° |
| 2026-05-07 23:46 | 54.58699 | -26.98054 | 39304 ft | 494 kts | 83° |
| 2026-05-07 23:46 | 54.58887 | -26.86164 | 39304 ft | 494 kts | 83° |
| 2026-05-07 23:47 | 54.59061 | -26.74355 | 39327 ft | 494 kts | 84° |
| 2026-05-07 23:47 | 54.59228 | -26.62474 | 39305 ft | 495 kts | 84° |
| 2026-05-07 23:48 | 54.59380 | -26.50576 | 39297 ft | 496 kts | 84° |
| 2026-05-07 23:48 | 54.59521 | -26.38662 | 39296 ft | 496 kts | 84° |
| 2026-05-07 23:49 | 54.59651 | -26.26737 | 39287 ft | 496 kts | 84° |
| 2026-05-07 23:49 | 54.59769 | -26.14862 | 39313 ft | 496 kts | 84° |
| 2026-05-07 23:50 | 54.59879 | -26.02920 | 39290 ft | 497 kts | 84° |
| 2026-05-07 23:50 | 54.59973 | -25.91000 | 39286 ft | 497 kts | 85° |
| 2026-05-07 23:51 | 54.60056 | -25.79067 | 39281 ft | 497 kts | 85° |
| 2026-05-07 23:51 | 54.60130 | -25.67128 | 39277 ft | 497 kts | 85° |
| 2026-05-07 23:52 | 54.60189 | -25.55182 | 39300 ft | 497 kts | 85° |
| 2026-05-07 23:52 | 54.60239 | -25.43283 | 39278 ft | 498 kts | 85° |
| 2026-05-07 23:53 | 54.60274 | -25.31311 | 39272 ft | 498 kts | 85° |
| 2026-05-07 23:53 | 54.60298 | -25.19313 | 39266 ft | 498 kts | 86° |
| 2026-05-07 23:54 | 54.60311 | -25.07340 | 39261 ft | 498 kts | 86° |
| 2026-05-07 23:54 | 54.60312 | -24.95442 | 39284 ft | 498 kts | 86° |
| 2026-05-07 23:55 | 54.60304 | -24.83469 | 39256 ft | 498 kts | 86° |
| 2026-05-07 23:55 | 54.60280 | -24.71459 | 39250 ft | 498 kts | 86° |
| 2026-05-07 23:56 | 54.60245 | -24.59509 | 39252 ft | 498 kts | 86° |
| 2026-05-07 23:56 | 54.60200 | -24.47619 | 39251 ft | 498 kts | 86° |
| 2026-05-07 23:57 | 54.60145 | -24.35613 | 39268 ft | 499 kts | 87° |
| 2026-05-07 23:57 | 54.60076 | -24.23623 | 39248 ft | 498 kts | 87° |
| 2026-05-07 23:58 | 54.59992 | -24.11629 | 39242 ft | 498 kts | 87° |
| 2026-05-07 23:58 | 54.59898 | -23.99699 | 39242 ft | 499 kts | 88° |
| 2026-05-07 23:59 | 54.59793 | -23.87719 | 39238 ft | 499 kts | 88° |
| 2026-05-07 23:59 | 54.59677 | -23.75746 | 39258 ft | 499 kts | 88° |
| 2026-05-08 00:00 | 54.59550 | -23.63751 | 39239 ft | 499 kts | 88° |
| 2026-05-08 00:00 | 54.59408 | -23.51770 | 39237 ft | 499 kts | 88° |
| 2026-05-08 00:01 | 54.59255 | -23.39791 | 39229 ft | 499 kts | 88° |
| 2026-05-08 00:01 | 54.59092 | -23.27887 | 39228 ft | 499 kts | 88° |
| 2026-05-08 00:02 | 54.58919 | -23.15899 | 39234 ft | 499 kts | 89° |
| 2026-05-08 00:02 | 54.58731 | -23.03886 | 39225 ft | 499 kts | 89° |
| 2026-05-08 00:03 | 54.58529 | -22.91892 | 39220 ft | 499 kts | 89° |
| 2026-05-08 00:03 | 54.58316 | -22.79905 | 39220 ft | 499 kts | 89° |
| 2026-05-08 00:04 | 54.58093 | -22.67936 | 39212 ft | 499 kts | 89° |
| 2026-05-08 00:04 | 54.57857 | -22.55958 | 39212 ft | 499 kts | 89° |
| 2026-05-08 00:05 | 54.57610 | -22.43961 | 39209 ft | 500 kts | 90° |
| 2026-05-08 00:05 | 54.57350 | -22.31948 | 39209 ft | 500 kts | 90° |
| 2026-05-08 00:06 | 54.57080 | -22.20012 | 39209 ft | 500 kts | 90° |
| 2026-05-08 00:06 | 54.56796 | -22.07974 | 39208 ft | 500 kts | 90° |
| 2026-05-08 00:07 | 54.56505 | -21.96004 | 39210 ft | 500 kts | 90° |
| 2026-05-08 00:07 | 54.56199 | -21.83999 | 39202 ft | 500 kts | 91° |
| 2026-05-08 00:08 | 54.55880 | -21.72090 | 39199 ft | 500 kts | 91° |
| 2026-05-08 00:08 | 54.55549 | -21.60104 | 39194 ft | 500 kts | 91° |
| 2026-05-08 00:09 | 54.55204 | -21.48049 | 39190 ft | 500 kts | 91° |
| 2026-05-08 00:09 | 54.54854 | -21.36124 | 39199 ft | 500 kts | 91° |
| 2026-05-08 00:10 | 54.54487 | -21.24114 | 39187 ft | 500 kts | 91° |
| 2026-05-08 00:10 | 54.54108 | -21.12146 | 39184 ft | 500 kts | 91° |
| 2026-05-08 00:11 | 54.53720 | -21.00241 | 39181 ft | 500 kts | 92° |
| 2026-05-08 00:11 | 54.53318 | -20.88262 | 39182 ft | 500 kts | 92° |
| 2026-05-08 00:12 | 54.52907 | -20.76263 | 39190 ft | 500 kts | 92° |
| 2026-05-08 00:12 | 54.52482 | -20.64280 | 39163 ft | 500 kts | 92° |
| 2026-05-08 00:13 | 54.52045 | -20.52326 | 39171 ft | 502 kts | 92° |
| 2026-05-08 00:13 | 54.51593 | -20.40311 | 39170 ft | 502 kts | 92° |
| 2026-05-08 00:14 | 54.51132 | -20.28315 | 39169 ft | 502 kts | 93° |
| 2026-05-08 00:14 | 54.50658 | -20.16283 | 39176 ft | 502 kts | 93° |
| 2026-05-08 00:15 | 54.50003 | -20.04281 | 39164 ft | 502 kts | 98° |
| 2026-05-08 00:15 | 54.48636 | -19.92551 | 39163 ft | 503 kts | 104° |
| 2026-05-08 00:16 | 54.46651 | -19.80998 | 39160 ft | 503 kts | 107° |
| 2026-05-08 00:16 | 54.44596 | -19.69487 | 39161 ft | 503 kts | 107° |
| 2026-05-08 00:17 | 54.42536 | -19.57972 | 39162 ft | 503 kts | 107° |
| 2026-05-08 00:17 | 54.40475 | -19.46490 | 39155 ft | 502 kts | 107° |
| 2026-05-08 00:18 | 54.38395 | -19.34983 | 39152 ft | 503 kts | 107° |
| 2026-05-08 00:18 | 54.36310 | -19.23521 | 39143 ft | 502 kts | 107° |
| 2026-05-08 00:19 | 54.34219 | -19.12086 | 39150 ft | 502 kts | 108° |
| 2026-05-08 00:19 | 54.32116 | -19.00661 | 39142 ft | 502 kts | 108° |
| 2026-05-08 00:20 | 54.30005 | -18.89240 | 39143 ft | 502 kts | 108° |
| 2026-05-08 00:20 | 54.27882 | -18.77832 | 39136 ft | 503 kts | 108° |
| 2026-05-08 00:21 | 54.25741 | -18.66423 | 39135 ft | 503 kts | 108° |
| 2026-05-08 00:21 | 54.23606 | -18.55107 | 39132 ft | 503 kts | 108° |
| 2026-05-08 00:22 | 54.21447 | -18.43731 | 39131 ft | 502 kts | 109° |
| 2026-05-08 00:22 | 54.19271 | -18.32326 | 39132 ft | 502 kts | 109° |
| 2026-05-08 00:23 | 54.17103 | -18.21017 | 39129 ft | 502 kts | 109° |
| 2026-05-08 00:23 | 54.14912 | -18.09676 | 39115 ft | 502 kts | 109° |
| 2026-05-08 00:24 | 54.12714 | -17.98359 | 39121 ft | 502 kts | 109° |
| 2026-05-08 00:24 | 54.10502 | -17.87048 | 39120 ft | 502 kts | 109° |
| 2026-05-08 00:25 | 54.08660 | -17.77670 | 39115 ft | 502 kts | 109° |
| 2026-05-08 00:25 | 54.06424 | -17.66350 | 39120 ft | 502 kts | 110° |
| 2026-05-08 00:26 | 54.04183 | -17.55060 | 39116 ft | 502 kts | 110° |
| 2026-05-08 00:26 | 54.01942 | -17.43845 | 39114 ft | 502 kts | 110° |
| 2026-05-08 00:27 | 53.99678 | -17.32580 | 39102 ft | 502 kts | 110° |
| 2026-05-08 00:27 | 53.97405 | -17.21333 | 39102 ft | 502 kts | 110° |
| 2026-05-08 00:28 | 53.95124 | -17.10116 | 39108 ft | 502 kts | 110° |
| 2026-05-08 00:28 | 53.92830 | -16.98886 | 39099 ft | 502 kts | 110° |
| 2026-05-08 00:29 | 53.90526 | -16.87679 | 39099 ft | 502 kts | 111° |
| 2026-05-08 00:29 | 53.88225 | -16.76553 | 39097 ft | 502 kts | 111° |
| 2026-05-08 00:30 | 53.85902 | -16.65375 | 39101 ft | 503 kts | 111° |
| 2026-05-08 00:30 | 53.83555 | -16.54144 | 39092 ft | 503 kts | 111° |
| 2026-05-08 00:31 | 53.81214 | -16.43012 | 39091 ft | 503 kts | 111° |
| 2026-05-08 00:31 | 53.78856 | -16.31855 | 39092 ft | 503 kts | 111° |
| 2026-05-08 00:32 | 53.76486 | -16.20705 | 39086 ft | 503 kts | 111° |
| 2026-05-08 00:32 | 53.74131 | -16.09684 | 39084 ft | 503 kts | 111° |
| 2026-05-08 00:33 | 53.71747 | -15.98587 | 39089 ft | 503 kts | 111° |
| 2026-05-08 00:33 | 53.69343 | -15.87459 | 39066 ft | 503 kts | 112° |
| 2026-05-08 00:34 | 53.66928 | -15.76332 | 39078 ft | 502 kts | 112° |
| 2026-05-08 00:34 | 53.64524 | -15.65323 | 39083 ft | 501 kts | 112° |
| 2026-05-08 00:35 | 53.62091 | -15.54244 | 39081 ft | 501 kts | 112° |
| 2026-05-08 00:35 | 53.59656 | -15.43210 | 39078 ft | 501 kts | 112° |
| 2026-05-08 00:36 | 53.57222 | -15.32239 | 39078 ft | 501 kts | 112° |
| 2026-05-08 00:36 | 53.54780 | -15.21295 | 39073 ft | 501 kts | 112° |
| 2026-05-08 00:37 | 53.52483 | -15.10172 | 39058 ft | 503 kts | 106° |
| 2026-05-08 00:38 | 53.51384 | -14.92582 | 39073 ft | 505 kts | 95° |
| 2026-05-08 00:38 | 53.50952 | -14.80785 | 39067 ft | 505 kts | 95° |
| 2026-05-08 00:39 | 53.50479 | -14.68929 | 39070 ft | 505 kts | 96° |
| 2026-05-08 00:39 | 53.49981 | -14.57131 | 39064 ft | 506 kts | 96° |
| 2026-05-08 00:40 | 53.49466 | -14.45338 | 39067 ft | 506 kts | 96° |
| 2026-05-08 00:40 | 53.48938 | -14.33557 | 39065 ft | 506 kts | 96° |
| 2026-05-08 00:41 | 53.48396 | -14.21736 | 39064 ft | 506 kts | 96° |
| 2026-05-08 00:41 | 53.47845 | -14.09979 | 39060 ft | 506 kts | 96° |
| 2026-05-08 00:42 | 53.47281 | -13.98183 | 39058 ft | 506 kts | 96° |
| 2026-05-08 00:42 | 53.46707 | -13.86418 | 39056 ft | 506 kts | 96° |
| 2026-05-08 00:43 | 53.46121 | -13.74666 | 39056 ft | 506 kts | 96° |
| 2026-05-08 00:43 | 53.45521 | -13.62853 | 39047 ft | 506 kts | 97° |
| 2026-05-08 00:44 | 53.44910 | -13.51074 | 39041 ft | 506 kts | 97° |
| 2026-05-08 00:44 | 53.44290 | -13.39329 | 39048 ft | 506 kts | 97° |
| 2026-05-08 00:45 | 53.43657 | -13.27579 | 39051 ft | 506 kts | 97° |
| 2026-05-08 00:45 | 53.43015 | -13.15862 | 39051 ft | 506 kts | 97° |
| 2026-05-08 00:46 | 53.42359 | -13.04109 | 39043 ft | 506 kts | 97° |
| 2026-05-08 00:46 | 53.41691 | -12.92361 | 39043 ft | 506 kts | 97° |
| 2026-05-08 00:47 | 53.41010 | -12.80585 | 39042 ft | 506 kts | 97° |
| 2026-05-08 00:47 | 53.40316 | -12.68789 | 39043 ft | 506 kts | 97° |
| 2026-05-08 00:48 | 53.39617 | -12.57096 | 39043 ft | 506 kts | 98° |
| 2026-05-08 00:48 | 53.38901 | -12.45328 | 39037 ft | 506 kts | 98° |
| 2026-05-08 00:49 | 53.38174 | -12.33565 | 39032 ft | 506 kts | 98° |
| 2026-05-08 00:49 | 53.37436 | -12.21822 | 39034 ft | 506 kts | 98° |
| 2026-05-08 00:50 | 53.36687 | -12.10084 | 39027 ft | 506 kts | 98° |
| 2026-05-08 00:50 | 53.35926 | -11.98338 | 39035 ft | 506 kts | 98° |
| 2026-05-08 00:51 | 53.35153 | -11.86601 | 39021 ft | 506 kts | 98° |
| 2026-05-08 00:51 | 53.34369 | -11.74872 | 39031 ft | 507 kts | 98° |
| 2026-05-08 00:52 | 53.33572 | -11.63123 | 39035 ft | 507 kts | 98° |
| 2026-05-08 00:52 | 53.32769 | -11.51467 | 39028 ft | 506 kts | 99° |
| 2026-05-08 00:53 | 53.31949 | -11.39733 | 39025 ft | 506 kts | 99° |
| 2026-05-08 00:53 | 53.31120 | -11.28036 | 39021 ft | 506 kts | 99° |
| 2026-05-08 00:54 | 53.30278 | -11.16321 | 39024 ft | 506 kts | 99° |
| 2026-05-08 00:54 | 53.29425 | -11.04605 | 39019 ft | 506 kts | 99° |
| 2026-05-08 00:55 | 53.28566 | -10.92980 | 39018 ft | 506 kts | 99° |
| 2026-05-08 00:55 | 53.27685 | -10.81222 | 39017 ft | 506 kts | 99° |
| 2026-05-08 00:56 | 53.26803 | -10.69605 | 39019 ft | 506 kts | 99° |
| 2026-05-08 00:56 | 53.25904 | -10.57904 | 39007 ft | 506 kts | 99° |
| 2026-05-08 00:57 | 53.24994 | -10.46225 | 39015 ft | 506 kts | 99° |
| 2026-05-08 00:57 | 53.24076 | -10.34607 | 39017 ft | 506 kts | 99° |
| 2026-05-08 00:58 | 53.23144 | -10.22948 | 39015 ft | 506 kts | 100° |
| 2026-05-08 00:58 | 53.22199 | -10.11272 | 39017 ft | 506 kts | 100° |
| 2026-05-08 00:59 | 53.21247 | -9.99655 | 39015 ft | 506 kts | 100° |
| 2026-05-08 00:59 | 53.20285 | -9.88057 | 39015 ft | 506 kts | 100° |
| 2026-05-08 01:00 | 53.19308 | -9.76427 | 39016 ft | 506 kts | 100° |
| 2026-05-08 01:00 | 53.18320 | -9.64802 | 39016 ft | 505 kts | 100° |
| 2026-05-08 01:01 | 53.17321 | -9.53184 | 39012 ft | 505 kts | 100° |
| 2026-05-08 01:01 | 53.16308 | -9.41545 | 39008 ft | 505 kts | 100° |
| 2026-05-08 01:02 | 53.15294 | -9.30025 | 39007 ft | 505 kts | 101° |
| 2026-05-08 01:02 | 53.14261 | -9.18417 | 38997 ft | 505 kts | 101° |
| 2026-05-08 01:03 | 53.13215 | -9.06800 | 39003 ft | 505 kts | 101° |
| 2026-05-08 01:03 | 53.12159 | -8.95213 | 39003 ft | 505 kts | 101° |
| 2026-05-08 01:04 | 53.11101 | -8.83717 | 39000 ft | 505 kts | 101° |
| 2026-05-08 01:04 | 53.10025 | -8.72162 | 39001 ft | 505 kts | 101° |
| 2026-05-08 01:05 | 53.08934 | -8.60561 | 38999 ft | 505 kts | 101° |
| 2026-05-08 01:05 | 53.07835 | -8.49015 | 39001 ft | 504 kts | 101° |
| 2026-05-08 01:06 | 53.06724 | -8.37453 | 39002 ft | 504 kts | 101° |
| 2026-05-08 01:06 | 53.05607 | -8.25960 | 38999 ft | 504 kts | 102° |
| 2026-05-08 01:07 | 53.04473 | -8.14410 | 38987 ft | 504 kts | 102° |
| 2026-05-08 01:07 | 53.03337 | -8.02954 | 38994 ft | 504 kts | 102° |
| 2026-05-08 01:08 | 53.02180 | -7.91416 | 38998 ft | 504 kts | 102° |
| 2026-05-08 01:08 | 53.01016 | -7.79918 | 38999 ft | 504 kts | 102° |
| 2026-05-08 01:09 | 52.99847 | -7.68478 | 38991 ft | 504 kts | 102° |
| 2026-05-08 01:09 | 52.98664 | -7.57016 | 38993 ft | 503 kts | 102° |
| 2026-05-08 01:10 | 52.97468 | -7.45545 | 39001 ft | 503 kts | 102° |
| 2026-05-08 01:10 | 52.96265 | -7.34131 | 39001 ft | 503 kts | 102° |
| 2026-05-08 01:11 | 52.95255 | -7.24624 | 38999 ft | 503 kts | 103° |
| 2026-05-08 01:11 | 52.94028 | -7.13184 | 39007 ft | 503 kts | 103° |
| 2026-05-08 01:12 | 52.92792 | -7.01751 | 39008 ft | 503 kts | 103° |
| 2026-05-08 01:12 | 52.91546 | -6.90342 | 39008 ft | 503 kts | 103° |
| 2026-05-08 01:13 | 52.90286 | -6.78915 | 39008 ft | 503 kts | 103° |
| 2026-05-08 01:13 | 52.89014 | -6.67485 | 39009 ft | 503 kts | 103° |
| 2026-05-08 01:14 | 52.87739 | -6.56132 | 39016 ft | 503 kts | 103° |
| 2026-05-08 01:14 | 52.86450 | -6.44756 | 39013 ft | 502 kts | 103° |
| 2026-05-08 01:15 | 52.85148 | -6.33363 | 39020 ft | 502 kts | 103° |
| 2026-05-08 01:15 | 52.83837 | -6.21993 | 39010 ft | 502 kts | 103° |
| 2026-05-08 01:16 | 52.82524 | -6.10708 | 39017 ft | 502 kts | 103° |
| 2026-05-08 01:16 | 52.81195 | -5.99394 | 39011 ft | 501 kts | 103° |
| 2026-05-08 01:17 | 52.79856 | -5.88079 | 39017 ft | 501 kts | 103° |
| 2026-05-08 01:17 | 52.78505 | -5.76760 | 39026 ft | 501 kts | 103° |
| 2026-05-08 01:18 | 52.77142 | -5.65438 | 39026 ft | 501 kts | 104° |
| 2026-05-08 01:18 | 52.75767 | -5.54138 | 39029 ft | 501 kts | 104° |
| 2026-05-08 01:19 | 52.74030 | -5.42997 | 39035 ft | 499 kts | 109° |
| 2026-05-08 01:19 | 52.72035 | -5.31859 | 39035 ft | 499 kts | 109° |
| 2026-05-08 01:20 | 52.70052 | -5.20866 | 39039 ft | 499 kts | 109° |
| 2026-05-08 01:20 | 52.68066 | -5.09905 | 39041 ft | 499 kts | 109° |
| 2026-05-08 01:21 | 52.66078 | -4.98989 | 39037 ft | 499 kts | 109° |
| 2026-05-08 01:21 | 52.64072 | -4.88038 | 39031 ft | 498 kts | 109° |
| 2026-05-08 01:22 | 52.62056 | -4.77091 | 39038 ft | 498 kts | 109° |
| 2026-05-08 01:22 | 52.60047 | -4.66250 | 39040 ft | 497 kts | 109° |
| 2026-05-08 01:23 | 52.58017 | -4.55359 | 39042 ft | 497 kts | 109° |
| 2026-05-08 01:23 | 52.55977 | -4.44480 | 39040 ft | 497 kts | 110° |
| 2026-05-08 01:24 | 52.53930 | -4.33624 | 39040 ft | 496 kts | 110° |
| 2026-05-08 01:24 | 52.52080 | -4.23860 | 39040 ft | 496 kts | 110° |
| 2026-05-08 01:25 | 52.50018 | -4.13045 | 39043 ft | 496 kts | 110° |
| 2026-05-08 01:25 | 52.47931 | -4.02159 | 39041 ft | 496 kts | 110° |
| 2026-05-08 01:26 | 52.45851 | -3.91375 | 39029 ft | 495 kts | 110° |
| 2026-05-08 01:26 | 52.43764 | -3.80621 | 39041 ft | 496 kts | 110° |
| 2026-05-08 01:27 | 52.41664 | -3.69848 | 39047 ft | 496 kts | 110° |
| 2026-05-08 01:27 | 52.39557 | -3.59102 | 39047 ft | 496 kts | 110° |
| 2026-05-08 01:28 | 52.37427 | -3.48294 | 39048 ft | 496 kts | 110° |
| 2026-05-08 01:28 | 52.35313 | -3.37638 | 39046 ft | 495 kts | 110° |
| 2026-05-08 01:29 | 52.33166 | -3.26868 | 39048 ft | 494 kts | 110° |
| 2026-05-08 01:29 | 52.31025 | -3.16189 | 39048 ft | 494 kts | 110° |
| 2026-05-08 01:30 | 52.28880 | -3.05546 | 39045 ft | 494 kts | 110° |
| 2026-05-08 01:30 | 52.26715 | -2.94865 | 39043 ft | 494 kts | 110° |
| 2026-05-08 01:31 | 52.24543 | -2.84208 | 39039 ft | 493 kts | 110° |
| 2026-05-08 01:31 | 52.22362 | -2.73567 | 39049 ft | 493 kts | 110° |
| 2026-05-08 01:32 | 52.20188 | -2.63007 | 39049 ft | 493 kts | 111° |
| 2026-05-08 01:32 | 52.17981 | -2.52348 | 39051 ft | 493 kts | 111° |
| 2026-05-08 01:33 | 52.15774 | -2.41747 | 39048 ft | 492 kts | 111° |
| 2026-05-08 01:33 | 52.13574 | -2.31231 | 39053 ft | 491 kts | 111° |
| 2026-05-08 01:34 | 52.11357 | -2.20688 | 39051 ft | 491 kts | 111° |
| 2026-05-08 01:34 | 52.09130 | -2.10151 | 39053 ft | 491 kts | 111° |
| 2026-05-08 01:35 | 52.06908 | -1.99701 | 39059 ft | 491 kts | 111° |
| 2026-05-08 01:35 | 52.04653 | -1.89162 | 39055 ft | 491 kts | 111° |
| 2026-05-08 01:36 | 52.02410 | -1.78731 | 39045 ft | 491 kts | 111° |
| 2026-05-08 01:36 | 52.00144 | -1.68241 | 39044 ft | 491 kts | 111° |
| 2026-05-08 01:37 | 51.97867 | -1.57752 | 39047 ft | 491 kts | 111° |
| 2026-05-08 01:37 | 51.95590 | -1.47315 | 39053 ft | 491 kts | 111° |
| 2026-05-08 01:38 | 51.93287 | -1.36818 | 39050 ft | 491 kts | 111° |
| 2026-05-08 01:38 | 51.90990 | -1.26398 | 39055 ft | 491 kts | 111° |
| 2026-05-08 01:39 | 51.88676 | -1.15953 | 39057 ft | 491 kts | 111° |
| 2026-05-08 01:39 | 51.86367 | -1.05582 | 39056 ft | 491 kts | 112° |
| 2026-05-08 01:40 | 51.84038 | -0.95174 | 39052 ft | 491 kts | 112° |
| 2026-05-08 01:40 | 51.81699 | -0.84775 | 39058 ft | 492 kts | 112° |
| 2026-05-08 01:41 | 51.79348 | -0.74368 | 39063 ft | 492 kts | 112° |
| 2026-05-08 01:41 | 51.76989 | -0.63982 | 39070 ft | 491 kts | 112° |
| 2026-05-08 01:42 | 51.74618 | -0.53594 | 39074 ft | 491 kts | 112° |
| 2026-05-08 01:42 | 51.72252 | -0.43276 | 39072 ft | 491 kts | 112° |
| 2026-05-08 01:43 | 51.69865 | -0.32920 | 39076 ft | 491 kts | 112° |
| 2026-05-08 01:43 | 51.67473 | -0.22594 | 39076 ft | 491 kts | 112° |
| 2026-05-08 01:44 | 51.65069 | -0.12263 | 39076 ft | 491 kts | 112° |
| 2026-05-08 01:44 | 51.62726 | -0.02241 | 39074 ft | 491 kts | 112° |
| 2026-05-08 01:45 | 51.60310 | 0.08043 | 39072 ft | 492 kts | 112° |
| 2026-05-08 01:45 | 51.57866 | 0.18394 | 39076 ft | 492 kts | 113° |
| 2026-05-08 01:46 | 51.55416 | 0.28726 | 39074 ft | 493 kts | 113° |
| 2026-05-08 01:46 | 51.52966 | 0.39004 | 39075 ft | 493 kts | 113° |
| 2026-05-08 01:47 | 51.50510 | 0.49260 | 39070 ft | 492 kts | 113° |
| 2026-05-08 01:47 | 51.48044 | 0.59509 | 39075 ft | 492 kts | 113° |
| 2026-05-08 01:48 | 51.44335 | 0.74837 | 39077 ft | 492 kts | 113° |
| 2026-05-08 01:48 | 51.41835 | 0.85109 | 39077 ft | 492 kts | 113° |
| 2026-05-08 01:49 | 51.39344 | 0.95294 | 39075 ft | 492 kts | 113° |
| 2026-05-08 01:49 | 51.36848 | 1.05454 | 39074 ft | 491 kts | 113° |
| 2026-05-08 01:50 | 51.34332 | 1.15648 | 39081 ft | 491 kts | 114° |
| 2026-05-08 01:50 | 51.31811 | 1.25823 | 39068 ft | 491 kts | 114° |
| 2026-05-08 01:51 | 51.29280 | 1.35982 | 39074 ft | 491 kts | 114° |
| 2026-05-08 01:51 | 51.26745 | 1.46111 | 39068 ft | 491 kts | 114° |
| 2026-05-08 01:52 | 51.24193 | 1.56264 | 39074 ft | 491 kts | 114° |
| 2026-05-08 01:52 | 51.21634 | 1.66402 | 39074 ft | 491 kts | 114° |
| 2026-05-08 01:53 | 51.19379 | 1.76700 | 39074 ft | 493 kts | 108° |
| 2026-05-08 01:53 | 51.17482 | 1.87205 | 39070 ft | 493 kts | 108° |
| 2026-05-08 01:54 | 51.15555 | 1.97748 | 39070 ft | 493 kts | 108° |
| 2026-05-08 01:54 | 51.13608 | 2.08165 | 39073 ft | 493 kts | 109° |
| 2026-05-08 01:55 | 51.11627 | 2.18634 | 39067 ft | 493 kts | 109° |
| 2026-05-08 01:55 | 51.09633 | 2.29092 | 39061 ft | 493 kts | 109° |
| 2026-05-08 01:56 | 51.07640 | 2.39483 | 39054 ft | 493 kts | 109° |
| 2026-05-08 01:56 | 51.05615 | 2.49983 | 39064 ft | 494 kts | 109° |
| 2026-05-08 01:57 | 51.03595 | 2.60393 | 39058 ft | 493 kts | 109° |
| 2026-05-08 01:57 | 51.01905 | 2.69064 | 39057 ft | 493 kts | 109° |
| 2026-05-08 01:58 | 50.99858 | 2.79509 | 39060 ft | 493 kts | 109° |
| 2026-05-08 01:58 | 50.97472 | 2.91614 | 39066 ft | 494 kts | 109° |
| 2026-05-08 01:59 | 50.95751 | 3.00298 | 39063 ft | 494 kts | 109° |
| 2026-05-08 01:59 | 50.93678 | 3.10711 | 39067 ft | 494 kts | 109° |
| 2026-05-08 02:00 | 50.91598 | 3.21107 | 39060 ft | 494 kts | 110° |
| 2026-05-08 02:00 | 50.89514 | 3.31463 | 39051 ft | 494 kts | 110° |
| 2026-05-08 02:01 | 50.87415 | 3.41832 | 39055 ft | 494 kts | 110° |
| 2026-05-08 02:01 | 50.85306 | 3.52201 | 39057 ft | 494 kts | 110° |
| 2026-05-08 02:02 | 50.83189 | 3.62561 | 39056 ft | 494 kts | 110° |
| 2026-05-08 02:02 | 50.81064 | 3.72901 | 39049 ft | 494 kts | 110° |
| 2026-05-08 02:03 | 50.78929 | 3.83233 | 39060 ft | 494 kts | 110° |
| 2026-05-08 02:03 | 50.76793 | 3.93518 | 39062 ft | 494 kts | 110° |
| 2026-05-08 02:04 | 50.74651 | 4.03783 | 39064 ft | 494 kts | 110° |
| 2026-05-08 02:04 | 50.72476 | 4.14148 | 39066 ft | 494 kts | 110° |
| 2026-05-08 02:05 | 50.70310 | 4.24421 | 39068 ft | 494 kts | 110° |
| 2026-05-08 02:05 | 50.68123 | 4.34739 | 39067 ft | 494 kts | 110° |
| 2026-05-08 02:06 | 50.65938 | 4.44993 | 39067 ft | 494 kts | 110° |
| 2026-05-08 02:06 | 50.63738 | 4.55268 | 39064 ft | 494 kts | 110° |
| 2026-05-08 02:07 | 50.61545 | 4.65460 | 39065 ft | 494 kts | 110° |
| 2026-05-08 02:07 | 50.59324 | 4.75727 | 39059 ft | 494 kts | 111° |
| 2026-05-08 02:08 | 50.57090 | 4.86004 | 38562 ft | 496 kts | 111° |
| 2026-05-08 02:08 | 50.55972 | 4.91129 | 37865 ft | 496 kts | 111° |
| 2026-05-08 02:08 | 50.54847 | 4.96271 | 37126 ft | 497 kts | 111° |
| 2026-05-08 02:09 | 50.53719 | 5.01419 | 36481 ft | 496 kts | 111° |
| 2026-05-08 02:09 | 50.52605 | 5.06488 | 35869 ft | 495 kts | 111° |
| 2026-05-08 02:09 | 50.51471 | 5.11636 | 35239 ft | 494 kts | 111° |
| 2026-05-08 02:09 | 50.50342 | 5.16741 | 34591 ft | 494 kts | 111° |
| 2026-05-08 02:10 | 50.49212 | 5.21846 | 33909 ft | 495 kts | 111° |
| 2026-05-08 02:10 | 50.48078 | 5.26952 | 33183 ft | 494 kts | 111° |
| 2026-05-08 02:10 | 50.46953 | 5.32010 | 32502 ft | 493 kts | 111° |
| 2026-05-08 02:10 | 50.45813 | 5.37122 | 31875 ft | 492 kts | 111° |
| 2026-05-08 02:11 | 50.44691 | 5.42144 | 31222 ft | 490 kts | 111° |
| 2026-05-08 02:11 | 50.43558 | 5.47197 | 30572 ft | 490 kts | 111° |
| 2026-05-08 02:11 | 50.42425 | 5.52241 | 29854 ft | 490 kts | 111° |
| 2026-05-08 02:11 | 50.41287 | 5.57290 | 29098 ft | 489 kts | 111° |
| 2026-05-08 02:12 | 50.40149 | 5.62326 | 28357 ft | 487 kts | 111° |
| 2026-05-08 02:12 | 50.39019 | 5.67322 | 27715 ft | 484 kts | 111° |
| 2026-05-08 02:12 | 50.37900 | 5.72259 | 27314 ft | 481 kts | 111° |
| 2026-05-08 02:12 | 50.36779 | 5.77195 | 26844 ft | 478 kts | 111° |
| 2026-05-08 02:13 | 50.35664 | 5.82088 | 26334 ft | 474 kts | 111° |
| 2026-05-08 02:13 | 50.34561 | 5.86921 | 25868 ft | 469 kts | 111° |
| 2026-05-08 02:13 | 50.33467 | 5.91699 | 25420 ft | 464 kts | 111° |
| 2026-05-08 02:13 | 50.32385 | 5.96418 | 24988 ft | 460 kts | 111° |
| 2026-05-08 02:14 | 50.31305 | 6.01114 | 24533 ft | 455 kts | 111° |
| 2026-05-08 02:14 | 50.30233 | 6.05757 | 24087 ft | 452 kts | 111° |
| 2026-05-08 02:14 | 50.29164 | 6.10385 | 23638 ft | 448 kts | 111° |
| 2026-05-08 02:14 | 50.28122 | 6.14892 | 23142 ft | 444 kts | 111° |
| 2026-05-08 02:15 | 50.27070 | 6.19430 | 22664 ft | 439 kts | 111° |
| 2026-05-08 02:15 | 50.26037 | 6.23875 | 22236 ft | 434 kts | 111° |
| 2026-05-08 02:15 | 50.25003 | 6.28317 | 21794 ft | 429 kts | 111° |
| 2026-05-08 02:15 | 50.23986 | 6.32677 | 21364 ft | 425 kts | 111° |
| 2026-05-08 02:16 | 50.22971 | 6.37016 | 20938 ft | 421 kts | 111° |
| 2026-05-08 02:16 | 50.21975 | 6.41265 | 20508 ft | 418 kts | 111° |
| 2026-05-08 02:16 | 50.20971 | 6.45543 | 20074 ft | 415 kts | 111° |
| 2026-05-08 02:16 | 50.19986 | 6.49729 | 19652 ft | 412 kts | 111° |
| 2026-05-08 02:17 | 50.18995 | 6.53933 | 19235 ft | 409 kts | 111° |
| 2026-05-08 02:17 | 50.18015 | 6.58083 | 18810 ft | 406 kts | 111° |
| 2026-05-08 02:17 | 50.17036 | 6.62224 | 18385 ft | 404 kts | 111° |
| 2026-05-08 02:17 | 50.16060 | 6.66340 | 17910 ft | 402 kts | 111° |
| 2026-05-08 02:18 | 50.15096 | 6.70400 | 17479 ft | 399 kts | 111° |
| 2026-05-08 02:18 | 50.14132 | 6.74450 | 17039 ft | 396 kts | 111° |
| 2026-05-08 02:18 | 50.13173 | 6.78474 | 16612 ft | 393 kts | 111° |
| 2026-05-08 02:18 | 50.12228 | 6.82431 | 16187 ft | 390 kts | 111° |
| 2026-05-08 02:19 | 50.11277 | 6.86404 | 15784 ft | 388 kts | 111° |
| 2026-05-08 02:19 | 50.10344 | 6.90299 | 15361 ft | 385 kts | 111° |
| 2026-05-08 02:19 | 50.09399 | 6.94231 | 14948 ft | 383 kts | 111° |
| 2026-05-08 02:19 | 50.08466 | 6.98113 | 14533 ft | 381 kts | 111° |
| 2026-05-08 02:20 | 50.07547 | 7.01925 | 14107 ft | 380 kts | 111° |
| 2026-05-08 02:20 | 50.06617 | 7.05779 | 13678 ft | 377 kts | 111° |
| 2026-05-08 02:20 | 50.05694 | 7.09596 | 13234 ft | 375 kts | 111° |
| 2026-05-08 02:20 | 50.04777 | 7.13382 | 12798 ft | 372 kts | 111° |
| 2026-05-08 02:21 | 50.03864 | 7.17143 | 12370 ft | 369 kts | 112° |
| 2026-05-08 02:21 | 50.02959 | 7.20870 | 11946 ft | 366 kts | 112° |
| 2026-05-08 02:21 | 50.02057 | 7.24574 | 11530 ft | 364 kts | 112° |
| 2026-05-08 02:21 | 50.01160 | 7.28253 | 11112 ft | 363 kts | 112° |
| 2026-05-08 02:22 | 50.00273 | 7.31881 | 10892 ft | 352 kts | 111° |
| 2026-05-08 02:22 | 49.99419 | 7.35367 | 10766 ft | 339 kts | 111° |
| 2026-05-08 02:22 | 49.98597 | 7.38728 | 10644 ft | 327 kts | 111° |
| 2026-05-08 02:22 | 49.97810 | 7.41935 | 10509 ft | 315 kts | 111° |
| 2026-05-08 02:23 | 49.97042 | 7.45066 | 10403 ft | 303 kts | 112° |
| 2026-05-08 02:23 | 49.96368 | 7.48130 | 10200 ft | 297 kts | 101° |
| 2026-05-08 02:23 | 49.96178 | 7.51322 | 9969 ft | 295 kts | 92° |
| 2026-05-08 02:23 | 49.96152 | 7.54519 | 9644 ft | 293 kts | 90° |
| 2026-05-08 02:24 | 49.96132 | 7.57640 | 9327 ft | 291 kts | 91° |
| 2026-05-08 02:24 | 49.96088 | 7.60779 | 8993 ft | 289 kts | 92° |
| 2026-05-08 02:24 | 49.96022 | 7.63894 | 8690 ft | 286 kts | 92° |
| 2026-05-08 02:24 | 49.95942 | 7.66986 | 8409 ft | 285 kts | 92° |
| 2026-05-08 02:25 | 49.95854 | 7.70057 | 8095 ft | 283 kts | 93° |
| 2026-05-08 02:25 | 49.95761 | 7.73116 | 7805 ft | 281 kts | 93° |
| 2026-05-08 02:25 | 49.95666 | 7.76137 | 7511 ft | 279 kts | 93° |
| 2026-05-08 02:25 | 49.95568 | 7.79148 | 7215 ft | 278 kts | 93° |
| 2026-05-08 02:26 | 49.95471 | 7.82150 | 6928 ft | 277 kts | 92° |
| 2026-05-08 02:26 | 49.95374 | 7.85101 | 6637 ft | 276 kts | 92° |
| 2026-05-08 02:26 | 49.95275 | 7.88089 | 6354 ft | 274 kts | 93° |
| 2026-05-08 02:26 | 49.95177 | 7.91028 | 6093 ft | 271 kts | 93° |
| 2026-05-08 02:27 | 49.95079 | 7.93931 | 5885 ft | 271 kts | 93° |
| 2026-05-08 02:27 | 49.94979 | 7.96859 | 5683 ft | 270 kts | 93° |
| 2026-05-08 02:27 | 49.94879 | 7.99782 | 5484 ft | 268 kts | 93° |
| 2026-05-08 02:27 | 49.94780 | 8.02653 | 5350 ft | 265 kts | 93° |
| 2026-05-08 02:28 | 49.94681 | 8.05472 | 5215 ft | 256 kts | 93° |
| 2026-05-08 02:28 | 49.94585 | 8.08200 | 5082 ft | 248 kts | 92° |
| 2026-05-08 02:28 | 49.94491 | 8.10849 | 4954 ft | 240 kts | 92° |
| 2026-05-08 02:28 | 49.94401 | 8.13380 | 4809 ft | 232 kts | 92° |
| 2026-05-08 02:29 | 49.94347 | 8.15845 | 4672 ft | 224 kts | 90° |
| 2026-05-08 02:29 | 49.94458 | 8.18254 | 4536 ft | 222 kts | 79° |
| 2026-05-08 02:29 | 49.94837 | 8.20552 | 4416 ft | 217 kts | 70° |
| 2026-05-08 02:29 | 49.95376 | 8.22676 | 4299 ft | 209 kts | 67° |
| 2026-05-08 02:30 | 49.95922 | 8.24713 | 4196 ft | 199 kts | 68° |
| 2026-05-08 02:30 | 49.96428 | 8.26685 | 3995 ft | 194 kts | 68° |
| 2026-05-08 02:30 | 49.96901 | 8.28619 | 3710 ft | 192 kts | 69° |
| 2026-05-08 02:30 | 49.97363 | 8.30565 | 3445 ft | 189 kts | 70° |
| 2026-05-08 02:31 | 49.97803 | 8.32445 | 3195 ft | 184 kts | 70° |
| 2026-05-08 02:31 | 49.98240 | 8.34314 | 2960 ft | 179 kts | 70° |
| 2026-05-08 02:31 | 49.98660 | 8.36108 | 2745 ft | 176 kts | 70° |
| 2026-05-08 02:31 | 49.99079 | 8.37896 | 2502 ft | 174 kts | 70° |
| 2026-05-08 02:32 | 49.99483 | 8.39612 | 2258 ft | 165 kts | 70° |
| 2026-05-08 02:32 | 49.99863 | 8.41226 | 2028 ft | 155 kts | 70° |
| 2026-05-08 02:32 | 50.00228 | 8.42770 | 1818 ft | 150 kts | 70° |
| 2026-05-08 02:32 | 50.00585 | 8.44284 | 1625 ft | 149 kts | 70° |
| 2026-05-08 02:33 | 50.00948 | 8.45831 | 1435 ft | 149 kts | 70° |
| 2026-05-08 02:33 | 50.01298 | 8.47342 | 1206 ft | 149 kts | 69° |
| 2026-05-08 02:33 | 50.01652 | 8.48840 | 1003 ft | 147 kts | 68° |
| 2026-05-08 02:33 | 50.02010 | 8.50330 | 792 ft | 146 kts | 68° |
| 2026-05-08 02:34 | 50.02365 | 8.51804 | 599 ft | 145 kts | 68° |
| 2026-05-08 02:34 | 50.02719 | 8.53268 | 399 ft | 144 kts | 68° |
| 2026-05-08 02:34 | 50.03048 | 8.54641 | 352 ft | 114 kts | 69° |
| 2026-05-08 02:34 | 50.03261 | 8.55533 | 358 ft | 62 kts | 69° |
| 2026-05-08 02:35 | 50.03403 | 8.56126 | 363 ft | 55 kts | 69° |
| 2026-05-08 02:35 | 50.03527 | 8.56642 | 364 ft | 40 kts | 70° |
| 2026-05-08 02:35 | 50.03625 | 8.56962 | 364 ft | 31 kts | 53° |
| 2026-05-08 02:35 | 50.03773 | 8.57175 | 370 ft | 25 kts | 39° |
| 2026-05-08 02:36 | 50.03895 | 8.57332 | 374 ft | 17 kts | 40° |
| 2026-05-08 02:36 | 50.03964 | 8.57456 | 376 ft | 16 kts | 65° |
| 2026-05-08 02:36 | 50.04008 | 8.57633 | 378 ft | 19 kts | 69° |
| 2026-05-08 02:36 | 50.04059 | 8.57846 | 377 ft | 22 kts | 69° |
| 2026-05-08 02:37 | 50.04106 | 8.58041 | 379 ft | 14 kts | 69° |
| 2026-05-08 02:37 | 50.04168 | 8.58156 | 378 ft | 12 kts | 26° |
| 2026-05-08 02:37 | 50.04244 | 8.58207 | 379 ft | 13 kts | 12° |
| 2026-05-08 02:37 | 50.04345 | 8.58171 | 378 ft | 16 kts | 339° |
| 2026-05-08 02:38 | 50.04461 | 8.58103 | 376 ft | 15 kts | 339° |
| 2026-05-08 02:38 | 50.04527 | 8.58052 | 379 ft | 11 kts | 305° |
| 2026-05-08 02:38 | 50.04519 | 8.57918 | 373 ft | 15 kts | 251° |
| 2026-05-08 02:38 | 50.04478 | 8.57747 | 376 ft | 19 kts | 250° |
| 2026-05-08 02:39 | 50.04429 | 8.57542 | 375 ft | 23 kts | 249° |
| 2026-05-08 02:39 | 50.04368 | 8.57287 | 375 ft | 24 kts | 250° |
| 2026-05-08 02:39 | 50.04317 | 8.57073 | 372 ft | 20 kts | 250° |
| 2026-05-08 02:39 | 50.04269 | 8.56870 | 374 ft | 20 kts | 249° |
| 2026-05-08 02:40 | 50.04218 | 8.56660 | 369 ft | 21 kts | 250° |
| 2026-05-08 02:40 | 50.04168 | 8.56448 | 370 ft | 22 kts | 250° |
| 2026-05-08 02:40 | 50.04110 | 8.56206 | 367 ft | 22 kts | 249° |
| 2026-05-08 02:40 | 50.04077 | 8.56070 | 364 ft | 9 kts | 249° |
| 2026-05-08 02:41 | 50.04093 | 8.55978 | 368 ft | 9 kts | 324° |
| 2026-05-08 02:41 | 50.04144 | 8.55943 | 365 ft | 5 kts | 340° |
| 2026-05-08 02:41 | 50.04189 | 8.55918 | 361 ft | 8 kts | 347° |
| 2026-05-08 02:41 | 50.04245 | 8.55948 | 367 ft | 10 kts | 29° |
| 2026-05-08 02:42 | 50.04319 | 8.55944 | 365 ft | 12 kts | 339° |
| 2026-05-08 02:42 | 50.04389 | 8.55908 | 366 ft | 10 kts | 352° |
| 2026-05-08 02:42 | 50.04456 | 8.55924 | 368 ft | 10 kts | 16° |
| 2026-05-08 02:42 | 50.04512 | 8.55951 | 370 ft | 7 kts | 19° |
| 2026-05-08 02:43 | 50.04553 | 8.55978 | 367 ft | 6 kts | 18° |
| 2026-05-08 02:43 | 50.04593 | 8.55972 | 370 ft | 4 kts | 342° |
| 2026-05-08 02:43 | 50.04616 | 8.55959 | 369 ft | 0 kts | 340° |
| 2026-05-08 02:43 | 50.04624 | 8.55955 | 368 ft | 2 kts | 340° |
| 2026-05-08 02:44 | 50.04630 | 8.55951 | 368 ft | 1 kts | 340° |
| 2026-05-08 02:44 | 50.04640 | 8.55946 | 370 ft | 0 kts | 340° |
| 2026-05-08 02:44 | 50.04641 | 8.55945 | 370 ft | 0 kts | 340° |